<?xml version="1.0" encoding="UTF-8" standalone="no" ?>
<gpx xmlns="http://www.topografix.com/GPX/1/1" xmlns:xsi="http://www.w3.org/2001/XMLSchema-instance" xsi:schemaLocation="http://www.topografix.com/GPX/1/1 http://www.topografix.com/GPX/1/1/gpx.xsd" version="1.1" creator="VisuGPX - https://www.visugpx.com">
  <metadata>
    <name>Delincourt Egremont Boubier Reilly Delincourt</name>
    <desc><![CDATA[12/12/2016  Delincourt Egremont Boubier Reilly Delincourt]]></desc>
  </metadata>
  <trk>
    <name><![CDATA[12 déc. 2016]]></name>
    <cmt><![CDATA[08:58:28]]></cmt>
    <desc><![CDATA[comment ...]]></desc>
    <trkseg>
      <trkpt lat="49.24377" lon="1.83335">
        <ele>99</ele>
        <time>2016-12-12T07:58:28Z</time>
      </trkpt>
      <trkpt lat="49.24379" lon="1.83336">
        <ele>99</ele>
        <time>2016-12-12T07:58:29Z</time>
      </trkpt>
      <trkpt lat="49.2438" lon="1.83331">
        <ele>98</ele>
        <time>2016-12-12T07:58:33Z</time>
      </trkpt>
      <trkpt lat="49.2438" lon="1.83326">
        <ele>99</ele>
        <time>2016-12-12T07:58:36Z</time>
      </trkpt>
      <trkpt lat="49.24378" lon="1.83322">
        <ele>99</ele>
        <time>2016-12-12T07:58:38Z</time>
      </trkpt>
      <trkpt lat="49.24379" lon="1.83317">
        <ele>101</ele>
        <time>2016-12-12T07:58:42Z</time>
      </trkpt>
      <trkpt lat="49.24382" lon="1.83317">
        <ele>102</ele>
        <time>2016-12-12T07:58:46Z</time>
      </trkpt>
      <trkpt lat="49.24383" lon="1.83312">
        <ele>101</ele>
        <time>2016-12-12T07:58:50Z</time>
      </trkpt>
      <trkpt lat="49.24385" lon="1.83308">
        <ele>100</ele>
        <time>2016-12-12T07:58:53Z</time>
      </trkpt>
      <trkpt lat="49.24385" lon="1.83304">
        <ele>101</ele>
        <time>2016-12-12T07:58:55Z</time>
      </trkpt>
      <trkpt lat="49.24385" lon="1.83295">
        <ele>102</ele>
        <time>2016-12-12T07:58:59Z</time>
      </trkpt>
      <trkpt lat="49.24387" lon="1.83291">
        <ele>102</ele>
        <time>2016-12-12T07:59:02Z</time>
      </trkpt>
      <trkpt lat="49.24385" lon="1.83285">
        <ele>103</ele>
        <time>2016-12-12T07:59:06Z</time>
      </trkpt>
      <trkpt lat="49.24386" lon="1.8328">
        <ele>102</ele>
        <time>2016-12-12T07:59:11Z</time>
      </trkpt>
      <trkpt lat="49.24388" lon="1.83254">
        <ele>102</ele>
        <time>2016-12-12T07:59:26Z</time>
      </trkpt>
      <trkpt lat="49.24389" lon="1.83244">
        <ele>102</ele>
        <time>2016-12-12T07:59:31Z</time>
      </trkpt>
      <trkpt lat="49.24392" lon="1.83237">
        <ele>102</ele>
        <time>2016-12-12T07:59:36Z</time>
      </trkpt>
      <trkpt lat="49.24392" lon="1.83232">
        <ele>103</ele>
        <time>2016-12-12T07:59:39Z</time>
      </trkpt>
      <trkpt lat="49.24394" lon="1.83229">
        <ele>104</ele>
        <time>2016-12-12T07:59:42Z</time>
      </trkpt>
      <trkpt lat="49.24394" lon="1.83223">
        <ele>105</ele>
        <time>2016-12-12T07:59:45Z</time>
      </trkpt>
      <trkpt lat="49.24393" lon="1.83218">
        <ele>104</ele>
        <time>2016-12-12T07:59:47Z</time>
      </trkpt>
      <trkpt lat="49.24395" lon="1.83207">
        <ele>103</ele>
        <time>2016-12-12T07:59:54Z</time>
      </trkpt>
      <trkpt lat="49.24399" lon="1.83182">
        <ele>99</ele>
        <time>2016-12-12T08:00:07Z</time>
      </trkpt>
      <trkpt lat="49.24403" lon="1.83182">
        <ele>99</ele>
        <time>2016-12-12T08:00:08Z</time>
      </trkpt>
      <trkpt lat="49.24402" lon="1.83176">
        <ele>100</ele>
        <time>2016-12-12T08:00:12Z</time>
      </trkpt>
      <trkpt lat="49.24406" lon="1.83163">
        <ele>100</ele>
        <time>2016-12-12T08:00:19Z</time>
      </trkpt>
      <trkpt lat="49.24405" lon="1.83154">
        <ele>99</ele>
        <time>2016-12-12T08:00:23Z</time>
      </trkpt>
      <trkpt lat="49.2441" lon="1.83151">
        <ele>99</ele>
        <time>2016-12-12T08:00:26Z</time>
      </trkpt>
      <trkpt lat="49.24416" lon="1.83149">
        <ele>97</ele>
        <time>2016-12-12T08:00:31Z</time>
      </trkpt>
      <trkpt lat="49.24415" lon="1.83143">
        <ele>97</ele>
        <time>2016-12-12T08:00:34Z</time>
      </trkpt>
      <trkpt lat="49.24421" lon="1.83144">
        <ele>97</ele>
        <time>2016-12-12T08:00:42Z</time>
      </trkpt>
      <trkpt lat="49.24424" lon="1.83137">
        <ele>97</ele>
        <time>2016-12-12T08:00:46Z</time>
      </trkpt>
      <trkpt lat="49.24423" lon="1.83131">
        <ele>98</ele>
        <time>2016-12-12T08:00:48Z</time>
      </trkpt>
      <trkpt lat="49.24425" lon="1.83128">
        <ele>97</ele>
        <time>2016-12-12T08:00:51Z</time>
      </trkpt>
      <trkpt lat="49.24426" lon="1.83123">
        <ele>97</ele>
        <time>2016-12-12T08:00:53Z</time>
      </trkpt>
      <trkpt lat="49.24427" lon="1.83119">
        <ele>98</ele>
        <time>2016-12-12T08:00:55Z</time>
      </trkpt>
      <trkpt lat="49.2443" lon="1.83113">
        <ele>98</ele>
        <time>2016-12-12T08:00:59Z</time>
      </trkpt>
      <trkpt lat="49.24427" lon="1.83108">
        <ele>98</ele>
        <time>2016-12-12T08:01:01Z</time>
      </trkpt>
      <trkpt lat="49.24432" lon="1.83108">
        <ele>98</ele>
        <time>2016-12-12T08:01:02Z</time>
      </trkpt>
      <trkpt lat="49.24434" lon="1.83102">
        <ele>99</ele>
        <time>2016-12-12T08:01:05Z</time>
      </trkpt>
      <trkpt lat="49.24439" lon="1.83101">
        <ele>99</ele>
        <time>2016-12-12T08:01:09Z</time>
      </trkpt>
      <trkpt lat="49.24445" lon="1.83083">
        <ele>100</ele>
        <time>2016-12-12T08:01:19Z</time>
      </trkpt>
      <trkpt lat="49.24444" lon="1.83071">
        <ele>100</ele>
        <time>2016-12-12T08:01:23Z</time>
      </trkpt>
      <trkpt lat="49.2445" lon="1.83065">
        <ele>97</ele>
        <time>2016-12-12T08:01:30Z</time>
      </trkpt>
      <trkpt lat="49.24456" lon="1.83062">
        <ele>98</ele>
        <time>2016-12-12T08:01:34Z</time>
      </trkpt>
      <trkpt lat="49.24462" lon="1.83049">
        <ele>98</ele>
        <time>2016-12-12T08:01:42Z</time>
      </trkpt>
      <trkpt lat="49.24457" lon="1.83048">
        <ele>94</ele>
        <time>2016-12-12T08:01:49Z</time>
      </trkpt>
      <trkpt lat="49.24443" lon="1.83044">
        <ele>92</ele>
        <time>2016-12-12T08:02:03Z</time>
      </trkpt>
      <trkpt lat="49.24438" lon="1.83049">
        <ele>94</ele>
        <time>2016-12-12T08:02:08Z</time>
      </trkpt>
      <trkpt lat="49.24412" lon="1.83072">
        <ele>95</ele>
        <time>2016-12-12T08:02:32Z</time>
      </trkpt>
      <trkpt lat="49.24404" lon="1.83073">
        <ele>98</ele>
        <time>2016-12-12T08:02:37Z</time>
      </trkpt>
      <trkpt lat="49.24391" lon="1.83073">
        <ele>93</ele>
        <time>2016-12-12T08:02:50Z</time>
      </trkpt>
      <trkpt lat="49.24383" lon="1.83076">
        <ele>92</ele>
        <time>2016-12-12T08:02:56Z</time>
      </trkpt>
      <trkpt lat="49.24381" lon="1.83079">
        <ele>92</ele>
        <time>2016-12-12T08:02:59Z</time>
      </trkpt>
      <trkpt lat="49.24366" lon="1.83087">
        <ele>89</ele>
        <time>2016-12-12T08:03:15Z</time>
      </trkpt>
      <trkpt lat="49.24363" lon="1.83092">
        <ele>90</ele>
        <time>2016-12-12T08:03:18Z</time>
      </trkpt>
      <trkpt lat="49.24356" lon="1.83093">
        <ele>91</ele>
        <time>2016-12-12T08:03:22Z</time>
      </trkpt>
      <trkpt lat="49.24355" lon="1.83098">
        <ele>91</ele>
        <time>2016-12-12T08:03:24Z</time>
      </trkpt>
      <trkpt lat="49.24351" lon="1.831">
        <ele>92</ele>
        <time>2016-12-12T08:03:27Z</time>
      </trkpt>
      <trkpt lat="49.24349" lon="1.83098">
        <ele>92</ele>
        <time>2016-12-12T08:03:28Z</time>
      </trkpt>
      <trkpt lat="49.24347" lon="1.83102">
        <ele>91</ele>
        <time>2016-12-12T08:03:30Z</time>
      </trkpt>
      <trkpt lat="49.24343" lon="1.83105">
        <ele>90</ele>
        <time>2016-12-12T08:03:34Z</time>
      </trkpt>
      <trkpt lat="49.2434" lon="1.83109">
        <ele>91</ele>
        <time>2016-12-12T08:03:38Z</time>
      </trkpt>
      <trkpt lat="49.24334" lon="1.83108">
        <ele>90</ele>
        <time>2016-12-12T08:03:42Z</time>
      </trkpt>
      <trkpt lat="49.24331" lon="1.83107">
        <ele>89</ele>
        <time>2016-12-12T08:03:44Z</time>
      </trkpt>
      <trkpt lat="49.24328" lon="1.83109">
        <ele>89</ele>
        <time>2016-12-12T08:03:48Z</time>
      </trkpt>
      <trkpt lat="49.24325" lon="1.83108">
        <ele>90</ele>
        <time>2016-12-12T08:03:49Z</time>
      </trkpt>
      <trkpt lat="49.24325" lon="1.83113">
        <ele>90</ele>
        <time>2016-12-12T08:03:53Z</time>
      </trkpt>
      <trkpt lat="49.24316" lon="1.83112">
        <ele>92</ele>
        <time>2016-12-12T08:03:58Z</time>
      </trkpt>
      <trkpt lat="49.24312" lon="1.83115">
        <ele>92</ele>
        <time>2016-12-12T08:04:01Z</time>
      </trkpt>
      <trkpt lat="49.24311" lon="1.83119">
        <ele>91</ele>
        <time>2016-12-12T08:04:03Z</time>
      </trkpt>
      <trkpt lat="49.24308" lon="1.83121">
        <ele>91</ele>
        <time>2016-12-12T08:04:06Z</time>
      </trkpt>
      <trkpt lat="49.24305" lon="1.83119">
        <ele>90</ele>
        <time>2016-12-12T08:04:08Z</time>
      </trkpt>
      <trkpt lat="49.24303" lon="1.83122">
        <ele>89</ele>
        <time>2016-12-12T08:04:11Z</time>
      </trkpt>
      <trkpt lat="49.24299" lon="1.83122">
        <ele>88</ele>
        <time>2016-12-12T08:04:14Z</time>
      </trkpt>
      <trkpt lat="49.24296" lon="1.83124">
        <ele>87</ele>
        <time>2016-12-12T08:04:17Z</time>
      </trkpt>
      <trkpt lat="49.24262" lon="1.83148">
        <ele>83</ele>
        <time>2016-12-12T08:05:16Z</time>
      </trkpt>
      <trkpt lat="49.24259" lon="1.83154">
        <ele>83</ele>
        <time>2016-12-12T08:05:19Z</time>
      </trkpt>
      <trkpt lat="49.24253" lon="1.83156">
        <ele>85</ele>
        <time>2016-12-12T08:05:24Z</time>
      </trkpt>
      <trkpt lat="49.24246" lon="1.83158">
        <ele>87</ele>
        <time>2016-12-12T08:05:29Z</time>
      </trkpt>
      <trkpt lat="49.24246" lon="1.83167">
        <ele>87</ele>
        <time>2016-12-12T08:05:38Z</time>
      </trkpt>
      <trkpt lat="49.24242" lon="1.83165">
        <ele>87</ele>
        <time>2016-12-12T08:05:41Z</time>
      </trkpt>
      <trkpt lat="49.24239" lon="1.83169">
        <ele>87</ele>
        <time>2016-12-12T08:05:45Z</time>
      </trkpt>
      <trkpt lat="49.24235" lon="1.83168">
        <ele>90</ele>
        <time>2016-12-12T08:05:47Z</time>
      </trkpt>
      <trkpt lat="49.24229" lon="1.83168">
        <ele>91</ele>
        <time>2016-12-12T08:05:51Z</time>
      </trkpt>
      <trkpt lat="49.24226" lon="1.8317">
        <ele>92</ele>
        <time>2016-12-12T08:05:53Z</time>
      </trkpt>
      <trkpt lat="49.24217" lon="1.8317">
        <ele>93</ele>
        <time>2016-12-12T08:05:59Z</time>
      </trkpt>
      <trkpt lat="49.24212" lon="1.83176">
        <ele>95</ele>
        <time>2016-12-12T08:06:07Z</time>
      </trkpt>
      <trkpt lat="49.24212" lon="1.83183">
        <ele>94</ele>
        <time>2016-12-12T08:06:10Z</time>
      </trkpt>
      <trkpt lat="49.24205" lon="1.83177">
        <ele>93</ele>
        <time>2016-12-12T08:06:13Z</time>
      </trkpt>
      <trkpt lat="49.24196" lon="1.83179">
        <ele>95</ele>
        <time>2016-12-12T08:06:15Z</time>
      </trkpt>
      <trkpt lat="49.24192" lon="1.83181">
        <ele>98</ele>
        <time>2016-12-12T08:06:21Z</time>
      </trkpt>
      <trkpt lat="49.24186" lon="1.83178">
        <ele>98</ele>
        <time>2016-12-12T08:06:28Z</time>
      </trkpt>
      <trkpt lat="49.24178" lon="1.83165">
        <ele>93</ele>
        <time>2016-12-12T08:06:40Z</time>
      </trkpt>
      <trkpt lat="49.24177" lon="1.83158">
        <ele>91</ele>
        <time>2016-12-12T08:06:43Z</time>
      </trkpt>
      <trkpt lat="49.24177" lon="1.83152">
        <ele>91</ele>
        <time>2016-12-12T08:06:45Z</time>
      </trkpt>
      <trkpt lat="49.24175" lon="1.83149">
        <ele>90</ele>
        <time>2016-12-12T08:06:47Z</time>
      </trkpt>
      <trkpt lat="49.24176" lon="1.83144">
        <ele>89</ele>
        <time>2016-12-12T08:06:49Z</time>
      </trkpt>
      <trkpt lat="49.24174" lon="1.8314">
        <ele>89</ele>
        <time>2016-12-12T08:06:52Z</time>
      </trkpt>
      <trkpt lat="49.2417" lon="1.83126">
        <ele>86</ele>
        <time>2016-12-12T08:07:05Z</time>
      </trkpt>
      <trkpt lat="49.24164" lon="1.83113">
        <ele>85</ele>
        <time>2016-12-12T08:07:11Z</time>
      </trkpt>
      <trkpt lat="49.24162" lon="1.83107">
        <ele>85</ele>
        <time>2016-12-12T08:07:13Z</time>
      </trkpt>
      <trkpt lat="49.24159" lon="1.83104">
        <ele>88</ele>
        <time>2016-12-12T08:07:15Z</time>
      </trkpt>
      <trkpt lat="49.2416" lon="1.831">
        <ele>89</ele>
        <time>2016-12-12T08:07:19Z</time>
      </trkpt>
      <trkpt lat="49.24157" lon="1.831">
        <ele>88</ele>
        <time>2016-12-12T08:07:20Z</time>
      </trkpt>
      <trkpt lat="49.24154" lon="1.83097">
        <ele>86</ele>
        <time>2016-12-12T08:07:23Z</time>
      </trkpt>
      <trkpt lat="49.24154" lon="1.83088">
        <ele>84</ele>
        <time>2016-12-12T08:07:27Z</time>
      </trkpt>
      <trkpt lat="49.24148" lon="1.83086">
        <ele>82</ele>
        <time>2016-12-12T08:07:32Z</time>
      </trkpt>
      <trkpt lat="49.24141" lon="1.83082">
        <ele>81</ele>
        <time>2016-12-12T08:07:38Z</time>
      </trkpt>
      <trkpt lat="49.24128" lon="1.83082">
        <ele>82</ele>
        <time>2016-12-12T08:07:49Z</time>
      </trkpt>
      <trkpt lat="49.24125" lon="1.83085">
        <ele>82</ele>
        <time>2016-12-12T08:07:55Z</time>
      </trkpt>
      <trkpt lat="49.2412" lon="1.83084">
        <ele>83</ele>
        <time>2016-12-12T08:07:59Z</time>
      </trkpt>
      <trkpt lat="49.24111" lon="1.83089">
        <ele>84</ele>
        <time>2016-12-12T08:08:06Z</time>
      </trkpt>
      <trkpt lat="49.24103" lon="1.83093">
        <ele>83</ele>
        <time>2016-12-12T08:08:16Z</time>
      </trkpt>
      <trkpt lat="49.24092" lon="1.83096">
        <ele>81</ele>
        <time>2016-12-12T08:08:31Z</time>
      </trkpt>
      <trkpt lat="49.24087" lon="1.83089">
        <ele>81</ele>
        <time>2016-12-12T08:08:35Z</time>
      </trkpt>
      <trkpt lat="49.24082" lon="1.83093">
        <ele>81</ele>
        <time>2016-12-12T08:08:41Z</time>
      </trkpt>
      <trkpt lat="49.24066" lon="1.83092">
        <ele>85</ele>
        <time>2016-12-12T08:08:57Z</time>
      </trkpt>
      <trkpt lat="49.2405" lon="1.83109">
        <ele>85</ele>
        <time>2016-12-12T08:09:08Z</time>
      </trkpt>
      <trkpt lat="49.2405" lon="1.83114">
        <ele>78</ele>
        <time>2016-12-12T08:09:27Z</time>
      </trkpt>
      <trkpt lat="49.24048" lon="1.83116">
        <ele>77</ele>
        <time>2016-12-12T08:09:29Z</time>
      </trkpt>
      <trkpt lat="49.24038" lon="1.83116">
        <ele>77</ele>
        <time>2016-12-12T08:09:37Z</time>
      </trkpt>
      <trkpt lat="49.24038" lon="1.83112">
        <ele>77</ele>
        <time>2016-12-12T08:09:45Z</time>
      </trkpt>
      <trkpt lat="49.24034" lon="1.83112">
        <ele>77</ele>
        <time>2016-12-12T08:09:54Z</time>
      </trkpt>
      <trkpt lat="49.24022" lon="1.83119">
        <ele>79</ele>
        <time>2016-12-12T08:10:07Z</time>
      </trkpt>
      <trkpt lat="49.24005" lon="1.83121">
        <ele>80</ele>
        <time>2016-12-12T08:10:23Z</time>
      </trkpt>
      <trkpt lat="49.23999" lon="1.83121">
        <ele>83</ele>
        <time>2016-12-12T08:10:28Z</time>
      </trkpt>
      <trkpt lat="49.23996" lon="1.83122">
        <ele>86</ele>
        <time>2016-12-12T08:10:30Z</time>
      </trkpt>
      <trkpt lat="49.23993" lon="1.83122">
        <ele>86</ele>
        <time>2016-12-12T08:10:33Z</time>
      </trkpt>
      <trkpt lat="49.2399" lon="1.83124">
        <ele>86</ele>
        <time>2016-12-12T08:10:36Z</time>
      </trkpt>
      <trkpt lat="49.23987" lon="1.83124">
        <ele>86</ele>
        <time>2016-12-12T08:10:39Z</time>
      </trkpt>
      <trkpt lat="49.23985" lon="1.83128">
        <ele>86</ele>
        <time>2016-12-12T08:10:42Z</time>
      </trkpt>
      <trkpt lat="49.23981" lon="1.83128">
        <ele>87</ele>
        <time>2016-12-12T08:10:45Z</time>
      </trkpt>
      <trkpt lat="49.23968" lon="1.83133">
        <ele>86</ele>
        <time>2016-12-12T08:10:56Z</time>
      </trkpt>
      <trkpt lat="49.23965" lon="1.83138">
        <ele>84</ele>
        <time>2016-12-12T08:11:00Z</time>
      </trkpt>
      <trkpt lat="49.23954" lon="1.83142">
        <ele>84</ele>
        <time>2016-12-12T08:11:13Z</time>
      </trkpt>
      <trkpt lat="49.2395" lon="1.83146">
        <ele>86</ele>
        <time>2016-12-12T08:11:19Z</time>
      </trkpt>
      <trkpt lat="49.23946" lon="1.83154">
        <ele>86</ele>
        <time>2016-12-12T08:11:23Z</time>
      </trkpt>
      <trkpt lat="49.23939" lon="1.83154">
        <ele>86</ele>
        <time>2016-12-12T08:11:28Z</time>
      </trkpt>
      <trkpt lat="49.23933" lon="1.83168">
        <ele>88</ele>
        <time>2016-12-12T08:11:37Z</time>
      </trkpt>
      <trkpt lat="49.23926" lon="1.83167">
        <ele>90</ele>
        <time>2016-12-12T08:11:41Z</time>
      </trkpt>
      <trkpt lat="49.23919" lon="1.83173">
        <ele>90</ele>
        <time>2016-12-12T08:11:49Z</time>
      </trkpt>
      <trkpt lat="49.23915" lon="1.83181">
        <ele>90</ele>
        <time>2016-12-12T08:11:55Z</time>
      </trkpt>
      <trkpt lat="49.23912" lon="1.83182">
        <ele>90</ele>
        <time>2016-12-12T08:11:58Z</time>
      </trkpt>
      <trkpt lat="49.23905" lon="1.83187">
        <ele>91</ele>
        <time>2016-12-12T08:12:06Z</time>
      </trkpt>
      <trkpt lat="49.23898" lon="1.83188">
        <ele>95</ele>
        <time>2016-12-12T08:12:11Z</time>
      </trkpt>
      <trkpt lat="49.23895" lon="1.83191">
        <ele>98</ele>
        <time>2016-12-12T08:12:14Z</time>
      </trkpt>
      <trkpt lat="49.23868" lon="1.83187">
        <ele>97</ele>
        <time>2016-12-12T08:12:40Z</time>
      </trkpt>
      <trkpt lat="49.23837" lon="1.83194">
        <ele>100</ele>
        <time>2016-12-12T08:13:12Z</time>
      </trkpt>
      <trkpt lat="49.23827" lon="1.83197">
        <ele>97</ele>
        <time>2016-12-12T08:13:21Z</time>
      </trkpt>
      <trkpt lat="49.23823" lon="1.83195">
        <ele>97</ele>
        <time>2016-12-12T08:13:23Z</time>
      </trkpt>
      <trkpt lat="49.2382" lon="1.83191">
        <ele>97</ele>
        <time>2016-12-12T08:13:25Z</time>
      </trkpt>
      <trkpt lat="49.23818" lon="1.83196">
        <ele>96</ele>
        <time>2016-12-12T08:13:28Z</time>
      </trkpt>
      <trkpt lat="49.23814" lon="1.83196">
        <ele>95</ele>
        <time>2016-12-12T08:13:33Z</time>
      </trkpt>
      <trkpt lat="49.23811" lon="1.83193">
        <ele>95</ele>
        <time>2016-12-12T08:13:35Z</time>
      </trkpt>
      <trkpt lat="49.23808" lon="1.83197">
        <ele>96</ele>
        <time>2016-12-12T08:13:40Z</time>
      </trkpt>
      <trkpt lat="49.23803" lon="1.83195">
        <ele>96</ele>
        <time>2016-12-12T08:13:42Z</time>
      </trkpt>
      <trkpt lat="49.23799" lon="1.83191">
        <ele>95</ele>
        <time>2016-12-12T08:13:46Z</time>
      </trkpt>
      <trkpt lat="49.23798" lon="1.83197">
        <ele>96</ele>
        <time>2016-12-12T08:13:51Z</time>
      </trkpt>
      <trkpt lat="49.23794" lon="1.83199">
        <ele>95</ele>
        <time>2016-12-12T08:13:54Z</time>
      </trkpt>
      <trkpt lat="49.23784" lon="1.83196">
        <ele>92</ele>
        <time>2016-12-12T08:14:00Z</time>
      </trkpt>
      <trkpt lat="49.2378" lon="1.83197">
        <ele>93</ele>
        <time>2016-12-12T08:14:07Z</time>
      </trkpt>
      <trkpt lat="49.23762" lon="1.83186">
        <ele>95</ele>
        <time>2016-12-12T08:14:20Z</time>
      </trkpt>
      <trkpt lat="49.2376" lon="1.83191">
        <ele>94</ele>
        <time>2016-12-12T08:14:24Z</time>
      </trkpt>
      <trkpt lat="49.23756" lon="1.83191">
        <ele>94</ele>
        <time>2016-12-12T08:14:26Z</time>
      </trkpt>
      <trkpt lat="49.23749" lon="1.83184">
        <ele>93</ele>
        <time>2016-12-12T08:14:30Z</time>
      </trkpt>
      <trkpt lat="49.23746" lon="1.83183">
        <ele>90</ele>
        <time>2016-12-12T08:14:35Z</time>
      </trkpt>
      <trkpt lat="49.23743" lon="1.83172">
        <ele>90</ele>
        <time>2016-12-12T08:14:41Z</time>
      </trkpt>
      <trkpt lat="49.23743" lon="1.83166">
        <ele>90</ele>
        <time>2016-12-12T08:14:44Z</time>
      </trkpt>
      <trkpt lat="49.23739" lon="1.83164">
        <ele>91</ele>
        <time>2016-12-12T08:14:46Z</time>
      </trkpt>
      <trkpt lat="49.2374" lon="1.83158">
        <ele>90</ele>
        <time>2016-12-12T08:14:48Z</time>
      </trkpt>
      <trkpt lat="49.23734" lon="1.83148">
        <ele>90</ele>
        <time>2016-12-12T08:14:57Z</time>
      </trkpt>
      <trkpt lat="49.23734" lon="1.83144">
        <ele>89</ele>
        <time>2016-12-12T08:15:00Z</time>
      </trkpt>
      <trkpt lat="49.23733" lon="1.83132">
        <ele>89</ele>
        <time>2016-12-12T08:15:07Z</time>
      </trkpt>
      <trkpt lat="49.23735" lon="1.83128">
        <ele>89</ele>
        <time>2016-12-12T08:15:10Z</time>
      </trkpt>
      <trkpt lat="49.23735" lon="1.83124">
        <ele>89</ele>
        <time>2016-12-12T08:15:12Z</time>
      </trkpt>
      <trkpt lat="49.23741" lon="1.83105">
        <ele>91</ele>
        <time>2016-12-12T08:15:22Z</time>
      </trkpt>
      <trkpt lat="49.23744" lon="1.83095">
        <ele>93</ele>
        <time>2016-12-12T08:15:29Z</time>
      </trkpt>
      <trkpt lat="49.23772" lon="1.83051">
        <ele>91</ele>
        <time>2016-12-12T08:16:01Z</time>
      </trkpt>
      <trkpt lat="49.23776" lon="1.83045">
        <ele>89</ele>
        <time>2016-12-12T08:16:07Z</time>
      </trkpt>
      <trkpt lat="49.23773" lon="1.83039">
        <ele>87</ele>
        <time>2016-12-12T08:16:10Z</time>
      </trkpt>
      <trkpt lat="49.23778" lon="1.83023">
        <ele>85</ele>
        <time>2016-12-12T08:16:22Z</time>
      </trkpt>
      <trkpt lat="49.23783" lon="1.83003">
        <ele>83</ele>
        <time>2016-12-12T08:16:33Z</time>
      </trkpt>
      <trkpt lat="49.23783" lon="1.82999">
        <ele>83</ele>
        <time>2016-12-12T08:16:54Z</time>
      </trkpt>
      <trkpt lat="49.23784" lon="1.82995">
        <ele>84</ele>
        <time>2016-12-12T08:16:58Z</time>
      </trkpt>
      <trkpt lat="49.23781" lon="1.8298">
        <ele>85</ele>
        <time>2016-12-12T08:17:06Z</time>
      </trkpt>
      <trkpt lat="49.23773" lon="1.82928">
        <ele>90</ele>
        <time>2016-12-12T08:17:37Z</time>
      </trkpt>
      <trkpt lat="49.23765" lon="1.82896">
        <ele>87</ele>
        <time>2016-12-12T08:17:59Z</time>
      </trkpt>
      <trkpt lat="49.23764" lon="1.82892">
        <ele>87</ele>
        <time>2016-12-12T08:18:01Z</time>
      </trkpt>
      <trkpt lat="49.23761" lon="1.82888">
        <ele>86</ele>
        <time>2016-12-12T08:18:04Z</time>
      </trkpt>
      <trkpt lat="49.23758" lon="1.82878">
        <ele>86</ele>
        <time>2016-12-12T08:18:11Z</time>
      </trkpt>
      <trkpt lat="49.23753" lon="1.82874">
        <ele>84</ele>
        <time>2016-12-12T08:18:15Z</time>
      </trkpt>
      <trkpt lat="49.23749" lon="1.82873">
        <ele>84</ele>
        <time>2016-12-12T08:18:19Z</time>
      </trkpt>
      <trkpt lat="49.23749" lon="1.82867">
        <ele>84</ele>
        <time>2016-12-12T08:18:24Z</time>
      </trkpt>
      <trkpt lat="49.23739" lon="1.82855">
        <ele>89</ele>
        <time>2016-12-12T08:18:34Z</time>
      </trkpt>
      <trkpt lat="49.23734" lon="1.82851">
        <ele>86</ele>
        <time>2016-12-12T08:18:38Z</time>
      </trkpt>
      <trkpt lat="49.23722" lon="1.82844">
        <ele>86</ele>
        <time>2016-12-12T08:18:49Z</time>
      </trkpt>
      <trkpt lat="49.23724" lon="1.82851">
        <ele>85</ele>
        <time>2016-12-12T08:18:56Z</time>
      </trkpt>
      <trkpt lat="49.23719" lon="1.82851">
        <ele>85</ele>
        <time>2016-12-12T08:18:59Z</time>
      </trkpt>
      <trkpt lat="49.23707" lon="1.82848">
        <ele>83</ele>
        <time>2016-12-12T08:19:06Z</time>
      </trkpt>
      <trkpt lat="49.23704" lon="1.82843">
        <ele>85</ele>
        <time>2016-12-12T08:19:10Z</time>
      </trkpt>
      <trkpt lat="49.237" lon="1.82843">
        <ele>87</ele>
        <time>2016-12-12T08:19:16Z</time>
      </trkpt>
      <trkpt lat="49.23695" lon="1.82841">
        <ele>88</ele>
        <time>2016-12-12T08:19:18Z</time>
      </trkpt>
      <trkpt lat="49.23692" lon="1.82838">
        <ele>90</ele>
        <time>2016-12-12T08:19:20Z</time>
      </trkpt>
      <trkpt lat="49.23689" lon="1.82836">
        <ele>92</ele>
        <time>2016-12-12T08:19:23Z</time>
      </trkpt>
      <trkpt lat="49.23684" lon="1.82836">
        <ele>95</ele>
        <time>2016-12-12T08:19:32Z</time>
      </trkpt>
      <trkpt lat="49.23682" lon="1.82837">
        <ele>95</ele>
        <time>2016-12-12T08:19:47Z</time>
      </trkpt>
      <trkpt lat="49.2368" lon="1.82834">
        <ele>96</ele>
        <time>2016-12-12T08:19:57Z</time>
      </trkpt>
      <trkpt lat="49.23678" lon="1.8283">
        <ele>99</ele>
        <time>2016-12-12T08:19:58Z</time>
      </trkpt>
      <trkpt lat="49.23675" lon="1.8283">
        <ele>99</ele>
        <time>2016-12-12T08:20:00Z</time>
      </trkpt>
      <trkpt lat="49.23673" lon="1.82825">
        <ele>97</ele>
        <time>2016-12-12T08:20:03Z</time>
      </trkpt>
      <trkpt lat="49.2367" lon="1.82823">
        <ele>95</ele>
        <time>2016-12-12T08:20:07Z</time>
      </trkpt>
      <trkpt lat="49.23669" lon="1.82815">
        <ele>94</ele>
        <time>2016-12-12T08:20:12Z</time>
      </trkpt>
      <trkpt lat="49.23672" lon="1.82809">
        <ele>94</ele>
        <time>2016-12-12T08:20:14Z</time>
      </trkpt>
      <trkpt lat="49.23667" lon="1.828">
        <ele>93</ele>
        <time>2016-12-12T08:20:18Z</time>
      </trkpt>
      <trkpt lat="49.23669" lon="1.82793">
        <ele>91</ele>
        <time>2016-12-12T08:20:24Z</time>
      </trkpt>
      <trkpt lat="49.23676" lon="1.82772">
        <ele>93</ele>
        <time>2016-12-12T08:20:38Z</time>
      </trkpt>
      <trkpt lat="49.23673" lon="1.82767">
        <ele>93</ele>
        <time>2016-12-12T08:20:41Z</time>
      </trkpt>
      <trkpt lat="49.23673" lon="1.82754">
        <ele>91</ele>
        <time>2016-12-12T08:20:48Z</time>
      </trkpt>
      <trkpt lat="49.2367" lon="1.82747">
        <ele>91</ele>
        <time>2016-12-12T08:20:51Z</time>
      </trkpt>
      <trkpt lat="49.23671" lon="1.8274">
        <ele>91</ele>
        <time>2016-12-12T08:20:55Z</time>
      </trkpt>
      <trkpt lat="49.23668" lon="1.82736">
        <ele>91</ele>
        <time>2016-12-12T08:20:57Z</time>
      </trkpt>
      <trkpt lat="49.23668" lon="1.8273">
        <ele>90</ele>
        <time>2016-12-12T08:21:00Z</time>
      </trkpt>
      <trkpt lat="49.2367" lon="1.82727">
        <ele>89</ele>
        <time>2016-12-12T08:21:02Z</time>
      </trkpt>
      <trkpt lat="49.23668" lon="1.82723">
        <ele>89</ele>
        <time>2016-12-12T08:21:04Z</time>
      </trkpt>
      <trkpt lat="49.2367" lon="1.82719">
        <ele>89</ele>
        <time>2016-12-12T08:21:06Z</time>
      </trkpt>
      <trkpt lat="49.2367" lon="1.82713">
        <ele>91</ele>
        <time>2016-12-12T08:21:09Z</time>
      </trkpt>
      <trkpt lat="49.23668" lon="1.82706">
        <ele>92</ele>
        <time>2016-12-12T08:21:13Z</time>
      </trkpt>
      <trkpt lat="49.23668" lon="1.82697">
        <ele>95</ele>
        <time>2016-12-12T08:21:18Z</time>
      </trkpt>
      <trkpt lat="49.2367" lon="1.82688">
        <ele>95</ele>
        <time>2016-12-12T08:21:24Z</time>
      </trkpt>
      <trkpt lat="49.23671" lon="1.82682">
        <ele>93</ele>
        <time>2016-12-12T08:21:28Z</time>
      </trkpt>
      <trkpt lat="49.2367" lon="1.82675">
        <ele>92</ele>
        <time>2016-12-12T08:21:33Z</time>
      </trkpt>
      <trkpt lat="49.23666" lon="1.82673">
        <ele>91</ele>
        <time>2016-12-12T08:21:36Z</time>
      </trkpt>
      <trkpt lat="49.23666" lon="1.82668">
        <ele>91</ele>
        <time>2016-12-12T08:21:39Z</time>
      </trkpt>
      <trkpt lat="49.2366" lon="1.82662">
        <ele>92</ele>
        <time>2016-12-12T08:21:44Z</time>
      </trkpt>
      <trkpt lat="49.23659" lon="1.82657">
        <ele>92</ele>
        <time>2016-12-12T08:21:46Z</time>
      </trkpt>
      <trkpt lat="49.23658" lon="1.82652">
        <ele>90</ele>
        <time>2016-12-12T08:21:48Z</time>
      </trkpt>
      <trkpt lat="49.23659" lon="1.82645">
        <ele>90</ele>
        <time>2016-12-12T08:21:52Z</time>
      </trkpt>
      <trkpt lat="49.23663" lon="1.82634">
        <ele>90</ele>
        <time>2016-12-12T08:21:57Z</time>
      </trkpt>
      <trkpt lat="49.23666" lon="1.82629">
        <ele>91</ele>
        <time>2016-12-12T08:22:00Z</time>
      </trkpt>
      <trkpt lat="49.23671" lon="1.82628">
        <ele>91</ele>
        <time>2016-12-12T08:22:02Z</time>
      </trkpt>
      <trkpt lat="49.23671" lon="1.82622">
        <ele>91</ele>
        <time>2016-12-12T08:22:05Z</time>
      </trkpt>
      <trkpt lat="49.23679" lon="1.8259">
        <ele>90</ele>
        <time>2016-12-12T08:22:25Z</time>
      </trkpt>
      <trkpt lat="49.23679" lon="1.8258">
        <ele>83</ele>
        <time>2016-12-12T08:22:34Z</time>
      </trkpt>
      <trkpt lat="49.23684" lon="1.82573">
        <ele>83</ele>
        <time>2016-12-12T08:22:38Z</time>
      </trkpt>
      <trkpt lat="49.23686" lon="1.82562">
        <ele>86</ele>
        <time>2016-12-12T08:22:43Z</time>
      </trkpt>
      <trkpt lat="49.23691" lon="1.82556">
        <ele>85</ele>
        <time>2016-12-12T08:22:48Z</time>
      </trkpt>
      <trkpt lat="49.23695" lon="1.82545">
        <ele>88</ele>
        <time>2016-12-12T08:22:53Z</time>
      </trkpt>
      <trkpt lat="49.23692" lon="1.82536">
        <ele>91</ele>
        <time>2016-12-12T08:22:57Z</time>
      </trkpt>
      <trkpt lat="49.23698" lon="1.82531">
        <ele>91</ele>
        <time>2016-12-12T08:23:01Z</time>
      </trkpt>
      <trkpt lat="49.23702" lon="1.82521">
        <ele>94</ele>
        <time>2016-12-12T08:23:07Z</time>
      </trkpt>
      <trkpt lat="49.23695" lon="1.82513">
        <ele>92</ele>
        <time>2016-12-12T08:23:12Z</time>
      </trkpt>
      <trkpt lat="49.23692" lon="1.82508">
        <ele>90</ele>
        <time>2016-12-12T08:23:15Z</time>
      </trkpt>
      <trkpt lat="49.23692" lon="1.82502">
        <ele>90</ele>
        <time>2016-12-12T08:23:18Z</time>
      </trkpt>
      <trkpt lat="49.23691" lon="1.82498">
        <ele>91</ele>
        <time>2016-12-12T08:23:21Z</time>
      </trkpt>
      <trkpt lat="49.23686" lon="1.82496">
        <ele>91</ele>
        <time>2016-12-12T08:23:23Z</time>
      </trkpt>
      <trkpt lat="49.23686" lon="1.82489">
        <ele>91</ele>
        <time>2016-12-12T08:23:29Z</time>
      </trkpt>
      <trkpt lat="49.23675" lon="1.82459">
        <ele>89</ele>
        <time>2016-12-12T08:23:47Z</time>
      </trkpt>
      <trkpt lat="49.23678" lon="1.82454">
        <ele>90</ele>
        <time>2016-12-12T08:23:49Z</time>
      </trkpt>
      <trkpt lat="49.23669" lon="1.82442">
        <ele>92</ele>
        <time>2016-12-12T08:23:59Z</time>
      </trkpt>
      <trkpt lat="49.23662" lon="1.82427">
        <ele>92</ele>
        <time>2016-12-12T08:24:08Z</time>
      </trkpt>
      <trkpt lat="49.23664" lon="1.82419">
        <ele>92</ele>
        <time>2016-12-12T08:24:15Z</time>
      </trkpt>
      <trkpt lat="49.23662" lon="1.82413">
        <ele>93</ele>
        <time>2016-12-12T08:24:19Z</time>
      </trkpt>
      <trkpt lat="49.23644" lon="1.82393">
        <ele>96</ele>
        <time>2016-12-12T08:24:35Z</time>
      </trkpt>
      <trkpt lat="49.23645" lon="1.82399">
        <ele>94</ele>
        <time>2016-12-12T08:24:37Z</time>
      </trkpt>
      <trkpt lat="49.23639" lon="1.82393">
        <ele>93</ele>
        <time>2016-12-12T08:24:43Z</time>
      </trkpt>
      <trkpt lat="49.23636" lon="1.82385">
        <ele>93</ele>
        <time>2016-12-12T08:24:49Z</time>
      </trkpt>
      <trkpt lat="49.23634" lon="1.82375">
        <ele>91</ele>
        <time>2016-12-12T08:24:58Z</time>
      </trkpt>
      <trkpt lat="49.23638" lon="1.82368">
        <ele>91</ele>
        <time>2016-12-12T08:25:04Z</time>
      </trkpt>
      <trkpt lat="49.23637" lon="1.82359">
        <ele>92</ele>
        <time>2016-12-12T08:25:07Z</time>
      </trkpt>
      <trkpt lat="49.23632" lon="1.82357">
        <ele>92</ele>
        <time>2016-12-12T08:25:09Z</time>
      </trkpt>
      <trkpt lat="49.23631" lon="1.82347">
        <ele>95</ele>
        <time>2016-12-12T08:25:18Z</time>
      </trkpt>
      <trkpt lat="49.23625" lon="1.82341">
        <ele>98</ele>
        <time>2016-12-12T08:25:24Z</time>
      </trkpt>
      <trkpt lat="49.23624" lon="1.82334">
        <ele>99</ele>
        <time>2016-12-12T08:25:29Z</time>
      </trkpt>
      <trkpt lat="49.23627" lon="1.82322">
        <ele>98</ele>
        <time>2016-12-12T08:25:35Z</time>
      </trkpt>
      <trkpt lat="49.23619" lon="1.82296">
        <ele>94</ele>
        <time>2016-12-12T08:25:49Z</time>
      </trkpt>
      <trkpt lat="49.23615" lon="1.82292">
        <ele>95</ele>
        <time>2016-12-12T08:25:54Z</time>
      </trkpt>
      <trkpt lat="49.23612" lon="1.82286">
        <ele>95</ele>
        <time>2016-12-12T08:25:57Z</time>
      </trkpt>
      <trkpt lat="49.23612" lon="1.82279">
        <ele>95</ele>
        <time>2016-12-12T08:26:00Z</time>
      </trkpt>
      <trkpt lat="49.23609" lon="1.82265">
        <ele>96</ele>
        <time>2016-12-12T08:26:08Z</time>
      </trkpt>
      <trkpt lat="49.23595" lon="1.82246">
        <ele>97</ele>
        <time>2016-12-12T08:26:19Z</time>
      </trkpt>
      <trkpt lat="49.23595" lon="1.82242">
        <ele>97</ele>
        <time>2016-12-12T08:26:22Z</time>
      </trkpt>
      <trkpt lat="49.23592" lon="1.82238">
        <ele>98</ele>
        <time>2016-12-12T08:26:25Z</time>
      </trkpt>
      <trkpt lat="49.23592" lon="1.82228">
        <ele>98</ele>
        <time>2016-12-12T08:26:30Z</time>
      </trkpt>
      <trkpt lat="49.23586" lon="1.82223">
        <ele>100</ele>
        <time>2016-12-12T08:26:35Z</time>
      </trkpt>
      <trkpt lat="49.23583" lon="1.82207">
        <ele>101</ele>
        <time>2016-12-12T08:26:43Z</time>
      </trkpt>
      <trkpt lat="49.23578" lon="1.82191">
        <ele>102</ele>
        <time>2016-12-12T08:26:54Z</time>
      </trkpt>
      <trkpt lat="49.23578" lon="1.82184">
        <ele>103</ele>
        <time>2016-12-12T08:26:58Z</time>
      </trkpt>
      <trkpt lat="49.23572" lon="1.82171">
        <ele>103</ele>
        <time>2016-12-12T08:27:08Z</time>
      </trkpt>
      <trkpt lat="49.23568" lon="1.82167">
        <ele>102</ele>
        <time>2016-12-12T08:27:11Z</time>
      </trkpt>
      <trkpt lat="49.23565" lon="1.8216">
        <ele>100</ele>
        <time>2016-12-12T08:27:17Z</time>
      </trkpt>
      <trkpt lat="49.23558" lon="1.8215">
        <ele>100</ele>
        <time>2016-12-12T08:27:25Z</time>
      </trkpt>
      <trkpt lat="49.23553" lon="1.82123">
        <ele>104</ele>
        <time>2016-12-12T08:27:45Z</time>
      </trkpt>
      <trkpt lat="49.23537" lon="1.82097">
        <ele>101</ele>
        <time>2016-12-12T08:28:05Z</time>
      </trkpt>
      <trkpt lat="49.23533" lon="1.82096">
        <ele>100</ele>
        <time>2016-12-12T08:28:08Z</time>
      </trkpt>
      <trkpt lat="49.23531" lon="1.82091">
        <ele>99</ele>
        <time>2016-12-12T08:28:12Z</time>
      </trkpt>
      <trkpt lat="49.23531" lon="1.82083">
        <ele>101</ele>
        <time>2016-12-12T08:28:13Z</time>
      </trkpt>
      <trkpt lat="49.23524" lon="1.82066">
        <ele>105</ele>
        <time>2016-12-12T08:28:25Z</time>
      </trkpt>
      <trkpt lat="49.23522" lon="1.82061">
        <ele>106</ele>
        <time>2016-12-12T08:28:27Z</time>
      </trkpt>
      <trkpt lat="49.23517" lon="1.82058">
        <ele>105</ele>
        <time>2016-12-12T08:28:33Z</time>
      </trkpt>
      <trkpt lat="49.23512" lon="1.82053">
        <ele>105</ele>
        <time>2016-12-12T08:28:39Z</time>
      </trkpt>
      <trkpt lat="49.23507" lon="1.82049">
        <ele>105</ele>
        <time>2016-12-12T08:28:45Z</time>
      </trkpt>
      <trkpt lat="49.23502" lon="1.82039">
        <ele>106</ele>
        <time>2016-12-12T08:28:51Z</time>
      </trkpt>
      <trkpt lat="49.23498" lon="1.82038">
        <ele>106</ele>
        <time>2016-12-12T08:28:53Z</time>
      </trkpt>
      <trkpt lat="49.23495" lon="1.82032">
        <ele>106</ele>
        <time>2016-12-12T08:29:00Z</time>
      </trkpt>
      <trkpt lat="49.23492" lon="1.82029">
        <ele>107</ele>
        <time>2016-12-12T08:29:06Z</time>
      </trkpt>
      <trkpt lat="49.2349" lon="1.82022">
        <ele>107</ele>
        <time>2016-12-12T08:29:09Z</time>
      </trkpt>
      <trkpt lat="49.23484" lon="1.82014">
        <ele>108</ele>
        <time>2016-12-12T08:29:14Z</time>
      </trkpt>
      <trkpt lat="49.2348" lon="1.82016">
        <ele>107</ele>
        <time>2016-12-12T08:29:17Z</time>
      </trkpt>
      <trkpt lat="49.23477" lon="1.82018">
        <ele>111</ele>
        <time>2016-12-12T08:29:21Z</time>
      </trkpt>
      <trkpt lat="49.23482" lon="1.82025">
        <ele>111</ele>
        <time>2016-12-12T08:29:28Z</time>
      </trkpt>
      <trkpt lat="49.23485" lon="1.82034">
        <ele>112</ele>
        <time>2016-12-12T08:29:35Z</time>
      </trkpt>
      <trkpt lat="49.23485" lon="1.82039">
        <ele>111</ele>
        <time>2016-12-12T08:29:39Z</time>
      </trkpt>
      <trkpt lat="49.23489" lon="1.82057">
        <ele>114</ele>
        <time>2016-12-12T08:29:54Z</time>
      </trkpt>
      <trkpt lat="49.23498" lon="1.82069">
        <ele>113</ele>
        <time>2016-12-12T08:30:03Z</time>
      </trkpt>
      <trkpt lat="49.23506" lon="1.82092">
        <ele>115</ele>
        <time>2016-12-12T08:30:17Z</time>
      </trkpt>
      <trkpt lat="49.23511" lon="1.82099">
        <ele>117</ele>
        <time>2016-12-12T08:30:23Z</time>
      </trkpt>
      <trkpt lat="49.23512" lon="1.82104">
        <ele>116</ele>
        <time>2016-12-12T08:30:27Z</time>
      </trkpt>
      <trkpt lat="49.23534" lon="1.82152">
        <ele>119</ele>
        <time>2016-12-12T08:30:59Z</time>
      </trkpt>
      <trkpt lat="49.23534" lon="1.82158">
        <ele>120</ele>
        <time>2016-12-12T08:31:03Z</time>
      </trkpt>
      <trkpt lat="49.23538" lon="1.82161">
        <ele>120</ele>
        <time>2016-12-12T08:31:06Z</time>
      </trkpt>
      <trkpt lat="49.23539" lon="1.82178">
        <ele>118</ele>
        <time>2016-12-12T08:31:15Z</time>
      </trkpt>
      <trkpt lat="49.23541" lon="1.82186">
        <ele>119</ele>
        <time>2016-12-12T08:31:20Z</time>
      </trkpt>
      <trkpt lat="49.23545" lon="1.82216">
        <ele>121</ele>
        <time>2016-12-12T08:31:37Z</time>
      </trkpt>
      <trkpt lat="49.23545" lon="1.82225">
        <ele>122</ele>
        <time>2016-12-12T08:31:42Z</time>
      </trkpt>
      <trkpt lat="49.23549" lon="1.82233">
        <ele>121</ele>
        <time>2016-12-12T08:31:46Z</time>
      </trkpt>
      <trkpt lat="49.2355" lon="1.82239">
        <ele>120</ele>
        <time>2016-12-12T08:31:49Z</time>
      </trkpt>
      <trkpt lat="49.23551" lon="1.82243">
        <ele>121</ele>
        <time>2016-12-12T08:31:53Z</time>
      </trkpt>
      <trkpt lat="49.2355" lon="1.82258">
        <ele>122</ele>
        <time>2016-12-12T08:32:00Z</time>
      </trkpt>
      <trkpt lat="49.23556" lon="1.82277">
        <ele>122</ele>
        <time>2016-12-12T08:32:14Z</time>
      </trkpt>
      <trkpt lat="49.23553" lon="1.82291">
        <ele>121</ele>
        <time>2016-12-12T08:32:25Z</time>
      </trkpt>
      <trkpt lat="49.23549" lon="1.82298">
        <ele>120</ele>
        <time>2016-12-12T08:32:29Z</time>
      </trkpt>
      <trkpt lat="49.23527" lon="1.82339">
        <ele>119</ele>
        <time>2016-12-12T08:33:01Z</time>
      </trkpt>
      <trkpt lat="49.23521" lon="1.8235">
        <ele>120</ele>
        <time>2016-12-12T08:33:08Z</time>
      </trkpt>
      <trkpt lat="49.23511" lon="1.82365">
        <ele>122</ele>
        <time>2016-12-12T08:33:21Z</time>
      </trkpt>
      <trkpt lat="49.23508" lon="1.82367">
        <ele>122</ele>
        <time>2016-12-12T08:33:23Z</time>
      </trkpt>
      <trkpt lat="49.23505" lon="1.82376">
        <ele>124</ele>
        <time>2016-12-12T08:33:29Z</time>
      </trkpt>
      <trkpt lat="49.235" lon="1.82384">
        <ele>122</ele>
        <time>2016-12-12T08:33:36Z</time>
      </trkpt>
      <trkpt lat="49.23498" lon="1.82386">
        <ele>123</ele>
        <time>2016-12-12T08:33:39Z</time>
      </trkpt>
      <trkpt lat="49.23493" lon="1.82399">
        <ele>120</ele>
        <time>2016-12-12T08:33:49Z</time>
      </trkpt>
      <trkpt lat="49.2348" lon="1.82417">
        <ele>123</ele>
        <time>2016-12-12T08:34:03Z</time>
      </trkpt>
      <trkpt lat="49.23475" lon="1.82422">
        <ele>124</ele>
        <time>2016-12-12T08:34:06Z</time>
      </trkpt>
      <trkpt lat="49.23475" lon="1.82427">
        <ele>124</ele>
        <time>2016-12-12T08:34:09Z</time>
      </trkpt>
      <trkpt lat="49.23471" lon="1.82434">
        <ele>122</ele>
        <time>2016-12-12T08:34:16Z</time>
      </trkpt>
      <trkpt lat="49.23463" lon="1.82447">
        <ele>123</ele>
        <time>2016-12-12T08:34:26Z</time>
      </trkpt>
      <trkpt lat="49.23453" lon="1.8247">
        <ele>123</ele>
        <time>2016-12-12T08:34:42Z</time>
      </trkpt>
      <trkpt lat="49.2345" lon="1.82477">
        <ele>124</ele>
        <time>2016-12-12T08:34:47Z</time>
      </trkpt>
      <trkpt lat="49.23447" lon="1.82485">
        <ele>126</ele>
        <time>2016-12-12T08:34:55Z</time>
      </trkpt>
      <trkpt lat="49.23424" lon="1.82524">
        <ele>124</ele>
        <time>2016-12-12T08:35:26Z</time>
      </trkpt>
      <trkpt lat="49.23418" lon="1.82537">
        <ele>123</ele>
        <time>2016-12-12T08:35:35Z</time>
      </trkpt>
      <trkpt lat="49.23413" lon="1.82541">
        <ele>124</ele>
        <time>2016-12-12T08:35:40Z</time>
      </trkpt>
      <trkpt lat="49.23407" lon="1.82552">
        <ele>123</ele>
        <time>2016-12-12T08:35:49Z</time>
      </trkpt>
      <trkpt lat="49.23397" lon="1.82566">
        <ele>126</ele>
        <time>2016-12-12T08:36:00Z</time>
      </trkpt>
      <trkpt lat="49.23392" lon="1.82574">
        <ele>126</ele>
        <time>2016-12-12T08:36:06Z</time>
      </trkpt>
      <trkpt lat="49.23385" lon="1.82589">
        <ele>124</ele>
        <time>2016-12-12T08:36:17Z</time>
      </trkpt>
      <trkpt lat="49.23382" lon="1.8259">
        <ele>124</ele>
        <time>2016-12-12T08:36:19Z</time>
      </trkpt>
      <trkpt lat="49.2338" lon="1.82596">
        <ele>124</ele>
        <time>2016-12-12T08:36:23Z</time>
      </trkpt>
      <trkpt lat="49.23378" lon="1.826">
        <ele>124</ele>
        <time>2016-12-12T08:36:26Z</time>
      </trkpt>
      <trkpt lat="49.23372" lon="1.82614">
        <ele>125</ele>
        <time>2016-12-12T08:36:35Z</time>
      </trkpt>
      <trkpt lat="49.23349" lon="1.82654">
        <ele>123</ele>
        <time>2016-12-12T08:37:06Z</time>
      </trkpt>
      <trkpt lat="49.23347" lon="1.82658">
        <ele>124</ele>
        <time>2016-12-12T08:37:08Z</time>
      </trkpt>
      <trkpt lat="49.23344" lon="1.82661">
        <ele>124</ele>
        <time>2016-12-12T08:37:12Z</time>
      </trkpt>
      <trkpt lat="49.23342" lon="1.82671">
        <ele>124</ele>
        <time>2016-12-12T08:37:18Z</time>
      </trkpt>
      <trkpt lat="49.23339" lon="1.82674">
        <ele>125</ele>
        <time>2016-12-12T08:37:21Z</time>
      </trkpt>
      <trkpt lat="49.23335" lon="1.82675">
        <ele>124</ele>
        <time>2016-12-12T08:37:23Z</time>
      </trkpt>
      <trkpt lat="49.23334" lon="1.8268">
        <ele>125</ele>
        <time>2016-12-12T08:37:26Z</time>
      </trkpt>
      <trkpt lat="49.23327" lon="1.82696">
        <ele>126</ele>
        <time>2016-12-12T08:37:39Z</time>
      </trkpt>
      <trkpt lat="49.23323" lon="1.82699">
        <ele>124</ele>
        <time>2016-12-12T08:37:42Z</time>
      </trkpt>
      <trkpt lat="49.23318" lon="1.82706">
        <ele>124</ele>
        <time>2016-12-12T08:37:47Z</time>
      </trkpt>
      <trkpt lat="49.23311" lon="1.82724">
        <ele>123</ele>
        <time>2016-12-12T08:37:59Z</time>
      </trkpt>
      <trkpt lat="49.23308" lon="1.82726">
        <ele>121</ele>
        <time>2016-12-12T08:38:02Z</time>
      </trkpt>
      <trkpt lat="49.23306" lon="1.82731">
        <ele>121</ele>
        <time>2016-12-12T08:38:05Z</time>
      </trkpt>
      <trkpt lat="49.23304" lon="1.82732">
        <ele>121</ele>
        <time>2016-12-12T08:38:07Z</time>
      </trkpt>
      <trkpt lat="49.23303" lon="1.82737">
        <ele>121</ele>
        <time>2016-12-12T08:38:10Z</time>
      </trkpt>
      <trkpt lat="49.233" lon="1.82739">
        <ele>121</ele>
        <time>2016-12-12T08:38:13Z</time>
      </trkpt>
      <trkpt lat="49.23299" lon="1.82743">
        <ele>121</ele>
        <time>2016-12-12T08:38:16Z</time>
      </trkpt>
      <trkpt lat="49.23294" lon="1.82751">
        <ele>120</ele>
        <time>2016-12-12T08:38:21Z</time>
      </trkpt>
      <trkpt lat="49.23287" lon="1.82762">
        <ele>120</ele>
        <time>2016-12-12T08:38:30Z</time>
      </trkpt>
      <trkpt lat="49.23277" lon="1.8278">
        <ele>123</ele>
        <time>2016-12-12T08:38:42Z</time>
      </trkpt>
      <trkpt lat="49.23274" lon="1.82783">
        <ele>124</ele>
        <time>2016-12-12T08:38:46Z</time>
      </trkpt>
      <trkpt lat="49.23271" lon="1.82791">
        <ele>124</ele>
        <time>2016-12-12T08:38:52Z</time>
      </trkpt>
      <trkpt lat="49.23269" lon="1.82795">
        <ele>123</ele>
        <time>2016-12-12T08:38:54Z</time>
      </trkpt>
      <trkpt lat="49.23264" lon="1.828">
        <ele>123</ele>
        <time>2016-12-12T08:38:59Z</time>
      </trkpt>
      <trkpt lat="49.23259" lon="1.82807">
        <ele>123</ele>
        <time>2016-12-12T08:39:05Z</time>
      </trkpt>
      <trkpt lat="49.23257" lon="1.82808">
        <ele>123</ele>
        <time>2016-12-12T08:39:07Z</time>
      </trkpt>
      <trkpt lat="49.23253" lon="1.82816">
        <ele>124</ele>
        <time>2016-12-12T08:39:13Z</time>
      </trkpt>
      <trkpt lat="49.23252" lon="1.82821">
        <ele>123</ele>
        <time>2016-12-12T08:39:18Z</time>
      </trkpt>
      <trkpt lat="49.2325" lon="1.82825">
        <ele>122</ele>
        <time>2016-12-12T08:39:20Z</time>
      </trkpt>
      <trkpt lat="49.23245" lon="1.82831">
        <ele>123</ele>
        <time>2016-12-12T08:39:26Z</time>
      </trkpt>
      <trkpt lat="49.23238" lon="1.82839">
        <ele>123</ele>
        <time>2016-12-12T08:39:31Z</time>
      </trkpt>
      <trkpt lat="49.23237" lon="1.82845">
        <ele>124</ele>
        <time>2016-12-12T08:39:36Z</time>
      </trkpt>
      <trkpt lat="49.23235" lon="1.82847">
        <ele>123</ele>
        <time>2016-12-12T08:39:39Z</time>
      </trkpt>
      <trkpt lat="49.2323" lon="1.82857">
        <ele>125</ele>
        <time>2016-12-12T08:39:45Z</time>
      </trkpt>
      <trkpt lat="49.23226" lon="1.82864">
        <ele>124</ele>
        <time>2016-12-12T08:39:50Z</time>
      </trkpt>
      <trkpt lat="49.23223" lon="1.82877">
        <ele>123</ele>
        <time>2016-12-12T08:40:00Z</time>
      </trkpt>
      <trkpt lat="49.23222" lon="1.82882">
        <ele>123</ele>
        <time>2016-12-12T08:40:03Z</time>
      </trkpt>
      <trkpt lat="49.23219" lon="1.82883">
        <ele>123</ele>
        <time>2016-12-12T08:40:05Z</time>
      </trkpt>
      <trkpt lat="49.23218" lon="1.82887">
        <ele>123</ele>
        <time>2016-12-12T08:40:08Z</time>
      </trkpt>
      <trkpt lat="49.23215" lon="1.82888">
        <ele>122</ele>
        <time>2016-12-12T08:40:09Z</time>
      </trkpt>
      <trkpt lat="49.23212" lon="1.82892">
        <ele>122</ele>
        <time>2016-12-12T08:40:12Z</time>
      </trkpt>
      <trkpt lat="49.2321" lon="1.82897">
        <ele>121</ele>
        <time>2016-12-12T08:40:15Z</time>
      </trkpt>
      <trkpt lat="49.23211" lon="1.82901">
        <ele>122</ele>
        <time>2016-12-12T08:40:18Z</time>
      </trkpt>
      <trkpt lat="49.23203" lon="1.82911">
        <ele>123</ele>
        <time>2016-12-12T08:40:25Z</time>
      </trkpt>
      <trkpt lat="49.23198" lon="1.82918">
        <ele>124</ele>
        <time>2016-12-12T08:40:30Z</time>
      </trkpt>
      <trkpt lat="49.23198" lon="1.82922">
        <ele>124</ele>
        <time>2016-12-12T08:40:33Z</time>
      </trkpt>
      <trkpt lat="49.23193" lon="1.8293">
        <ele>125</ele>
        <time>2016-12-12T08:40:39Z</time>
      </trkpt>
      <trkpt lat="49.23188" lon="1.82935">
        <ele>126</ele>
        <time>2016-12-12T08:40:43Z</time>
      </trkpt>
      <trkpt lat="49.23188" lon="1.8294">
        <ele>127</ele>
        <time>2016-12-12T08:40:47Z</time>
      </trkpt>
      <trkpt lat="49.23185" lon="1.82942">
        <ele>127</ele>
        <time>2016-12-12T08:40:49Z</time>
      </trkpt>
      <trkpt lat="49.23183" lon="1.82945">
        <ele>126</ele>
        <time>2016-12-12T08:40:52Z</time>
      </trkpt>
      <trkpt lat="49.23183" lon="1.8295">
        <ele>126</ele>
        <time>2016-12-12T08:40:56Z</time>
      </trkpt>
      <trkpt lat="49.2318" lon="1.82953">
        <ele>124</ele>
        <time>2016-12-12T08:40:58Z</time>
      </trkpt>
      <trkpt lat="49.2318" lon="1.82957">
        <ele>124</ele>
        <time>2016-12-12T08:41:01Z</time>
      </trkpt>
      <trkpt lat="49.23161" lon="1.82986">
        <ele>126</ele>
        <time>2016-12-12T08:41:24Z</time>
      </trkpt>
      <trkpt lat="49.23152" lon="1.82992">
        <ele>126</ele>
        <time>2016-12-12T08:41:32Z</time>
      </trkpt>
      <trkpt lat="49.23151" lon="1.83003">
        <ele>128</ele>
        <time>2016-12-12T08:41:38Z</time>
      </trkpt>
      <trkpt lat="49.23146" lon="1.8301">
        <ele>128</ele>
        <time>2016-12-12T08:41:44Z</time>
      </trkpt>
      <trkpt lat="49.23122" lon="1.83049">
        <ele>128</ele>
        <time>2016-12-12T08:42:16Z</time>
      </trkpt>
      <trkpt lat="49.23116" lon="1.8306">
        <ele>127</ele>
        <time>2016-12-12T08:42:25Z</time>
      </trkpt>
      <trkpt lat="49.23116" lon="1.83065">
        <ele>127</ele>
        <time>2016-12-12T08:42:29Z</time>
      </trkpt>
      <trkpt lat="49.23114" lon="1.83072">
        <ele>128</ele>
        <time>2016-12-12T08:42:34Z</time>
      </trkpt>
      <trkpt lat="49.23113" lon="1.83076">
        <ele>128</ele>
        <time>2016-12-12T08:42:37Z</time>
      </trkpt>
      <trkpt lat="49.2311" lon="1.83078">
        <ele>128</ele>
        <time>2016-12-12T08:42:39Z</time>
      </trkpt>
      <trkpt lat="49.23106" lon="1.83086">
        <ele>128</ele>
        <time>2016-12-12T08:42:45Z</time>
      </trkpt>
      <trkpt lat="49.23104" lon="1.83089">
        <ele>127</ele>
        <time>2016-12-12T08:42:47Z</time>
      </trkpt>
      <trkpt lat="49.23101" lon="1.8309">
        <ele>126</ele>
        <time>2016-12-12T08:42:49Z</time>
      </trkpt>
      <trkpt lat="49.231" lon="1.83095">
        <ele>128</ele>
        <time>2016-12-12T08:42:55Z</time>
      </trkpt>
      <trkpt lat="49.23099" lon="1.83099">
        <ele>129</ele>
        <time>2016-12-12T08:42:57Z</time>
      </trkpt>
      <trkpt lat="49.23089" lon="1.83114">
        <ele>130</ele>
        <time>2016-12-12T08:43:09Z</time>
      </trkpt>
      <trkpt lat="49.23084" lon="1.8312">
        <ele>128</ele>
        <time>2016-12-12T08:43:13Z</time>
      </trkpt>
      <trkpt lat="49.23084" lon="1.83125">
        <ele>127</ele>
        <time>2016-12-12T08:43:17Z</time>
      </trkpt>
      <trkpt lat="49.23082" lon="1.83129">
        <ele>127</ele>
        <time>2016-12-12T08:43:20Z</time>
      </trkpt>
      <trkpt lat="49.23081" lon="1.83134">
        <ele>125</ele>
        <time>2016-12-12T08:43:24Z</time>
      </trkpt>
      <trkpt lat="49.23079" lon="1.83138">
        <ele>126</ele>
        <time>2016-12-12T08:43:27Z</time>
      </trkpt>
      <trkpt lat="49.23077" lon="1.83142">
        <ele>125</ele>
        <time>2016-12-12T08:43:31Z</time>
      </trkpt>
      <trkpt lat="49.23072" lon="1.83147">
        <ele>126</ele>
        <time>2016-12-12T08:43:36Z</time>
      </trkpt>
      <trkpt lat="49.2307" lon="1.83152">
        <ele>126</ele>
        <time>2016-12-12T08:43:39Z</time>
      </trkpt>
      <trkpt lat="49.23067" lon="1.83153">
        <ele>127</ele>
        <time>2016-12-12T08:43:42Z</time>
      </trkpt>
      <trkpt lat="49.23062" lon="1.8316">
        <ele>129</ele>
        <time>2016-12-12T08:43:48Z</time>
      </trkpt>
      <trkpt lat="49.23062" lon="1.83165">
        <ele>129</ele>
        <time>2016-12-12T08:43:51Z</time>
      </trkpt>
      <trkpt lat="49.23059" lon="1.83167">
        <ele>129</ele>
        <time>2016-12-12T08:43:53Z</time>
      </trkpt>
      <trkpt lat="49.2304" lon="1.83206">
        <ele>128</ele>
        <time>2016-12-12T08:44:25Z</time>
      </trkpt>
      <trkpt lat="49.23036" lon="1.8321">
        <ele>128</ele>
        <time>2016-12-12T08:44:28Z</time>
      </trkpt>
      <trkpt lat="49.2302" lon="1.83229">
        <ele>129</ele>
        <time>2016-12-12T08:44:46Z</time>
      </trkpt>
      <trkpt lat="49.2302" lon="1.83234">
        <ele>130</ele>
        <time>2016-12-12T08:44:48Z</time>
      </trkpt>
      <trkpt lat="49.23019" lon="1.83238">
        <ele>129</ele>
        <time>2016-12-12T08:44:51Z</time>
      </trkpt>
      <trkpt lat="49.23017" lon="1.83242">
        <ele>128</ele>
        <time>2016-12-12T08:44:53Z</time>
      </trkpt>
      <trkpt lat="49.23015" lon="1.83248">
        <ele>127</ele>
        <time>2016-12-12T08:44:57Z</time>
      </trkpt>
      <trkpt lat="49.2301" lon="1.83254">
        <ele>127</ele>
        <time>2016-12-12T08:45:02Z</time>
      </trkpt>
      <trkpt lat="49.23008" lon="1.83263">
        <ele>128</ele>
        <time>2016-12-12T08:45:08Z</time>
      </trkpt>
      <trkpt lat="49.23" lon="1.83278">
        <ele>129</ele>
        <time>2016-12-12T08:45:21Z</time>
      </trkpt>
      <trkpt lat="49.22999" lon="1.83288">
        <ele>129</ele>
        <time>2016-12-12T08:45:28Z</time>
      </trkpt>
      <trkpt lat="49.23001" lon="1.83303">
        <ele>127</ele>
        <time>2016-12-12T08:45:37Z</time>
      </trkpt>
      <trkpt lat="49.2301" lon="1.83355">
        <ele>127</ele>
        <time>2016-12-12T08:46:08Z</time>
      </trkpt>
      <trkpt lat="49.23011" lon="1.83391">
        <ele>129</ele>
        <time>2016-12-12T08:46:35Z</time>
      </trkpt>
      <trkpt lat="49.23011" lon="1.83395">
        <ele>129</ele>
        <time>2016-12-12T08:46:37Z</time>
      </trkpt>
      <trkpt lat="49.23007" lon="1.83401">
        <ele>129</ele>
        <time>2016-12-12T08:46:40Z</time>
      </trkpt>
      <trkpt lat="49.23004" lon="1.83404">
        <ele>129</ele>
        <time>2016-12-12T08:46:42Z</time>
      </trkpt>
      <trkpt lat="49.23001" lon="1.83413">
        <ele>129</ele>
        <time>2016-12-12T08:46:49Z</time>
      </trkpt>
      <trkpt lat="49.22994" lon="1.83429">
        <ele>128</ele>
        <time>2016-12-12T08:47:01Z</time>
      </trkpt>
      <trkpt lat="49.22992" lon="1.83433">
        <ele>128</ele>
        <time>2016-12-12T08:47:04Z</time>
      </trkpt>
      <trkpt lat="49.22991" lon="1.83438">
        <ele>129</ele>
        <time>2016-12-12T08:47:07Z</time>
      </trkpt>
      <trkpt lat="49.22988" lon="1.83448">
        <ele>131</ele>
        <time>2016-12-12T08:47:14Z</time>
      </trkpt>
      <trkpt lat="49.22986" lon="1.83452">
        <ele>131</ele>
        <time>2016-12-12T08:47:16Z</time>
      </trkpt>
      <trkpt lat="49.22979" lon="1.83463">
        <ele>129</ele>
        <time>2016-12-12T08:47:24Z</time>
      </trkpt>
      <trkpt lat="49.22978" lon="1.83468">
        <ele>129</ele>
        <time>2016-12-12T08:47:27Z</time>
      </trkpt>
      <trkpt lat="49.22973" lon="1.83487">
        <ele>126</ele>
        <time>2016-12-12T08:47:43Z</time>
      </trkpt>
      <trkpt lat="49.22971" lon="1.8349">
        <ele>126</ele>
        <time>2016-12-12T08:47:46Z</time>
      </trkpt>
      <trkpt lat="49.2297" lon="1.83494">
        <ele>127</ele>
        <time>2016-12-12T08:47:49Z</time>
      </trkpt>
      <trkpt lat="49.22965" lon="1.83504">
        <ele>127</ele>
        <time>2016-12-12T08:47:56Z</time>
      </trkpt>
      <trkpt lat="49.22963" lon="1.83507">
        <ele>127</ele>
        <time>2016-12-12T08:47:59Z</time>
      </trkpt>
      <trkpt lat="49.2296" lon="1.8351">
        <ele>126</ele>
        <time>2016-12-12T08:48:01Z</time>
      </trkpt>
      <trkpt lat="49.22955" lon="1.83523">
        <ele>122</ele>
        <time>2016-12-12T08:48:11Z</time>
      </trkpt>
      <trkpt lat="49.2295" lon="1.83536">
        <ele>120</ele>
        <time>2016-12-12T08:48:20Z</time>
      </trkpt>
      <trkpt lat="49.22947" lon="1.83539">
        <ele>120</ele>
        <time>2016-12-12T08:48:22Z</time>
      </trkpt>
      <trkpt lat="49.22942" lon="1.83554">
        <ele>121</ele>
        <time>2016-12-12T08:48:31Z</time>
      </trkpt>
      <trkpt lat="49.22942" lon="1.83559">
        <ele>121</ele>
        <time>2016-12-12T08:48:33Z</time>
      </trkpt>
      <trkpt lat="49.22937" lon="1.83567">
        <ele>123</ele>
        <time>2016-12-12T08:48:41Z</time>
      </trkpt>
      <trkpt lat="49.22933" lon="1.83574">
        <ele>123</ele>
        <time>2016-12-12T08:48:44Z</time>
      </trkpt>
      <trkpt lat="49.22931" lon="1.83576">
        <ele>122</ele>
        <time>2016-12-12T08:48:48Z</time>
      </trkpt>
      <trkpt lat="49.22914" lon="1.83619">
        <ele>119</ele>
        <time>2016-12-12T08:49:19Z</time>
      </trkpt>
      <trkpt lat="49.22909" lon="1.83642">
        <ele>121</ele>
        <time>2016-12-12T08:49:35Z</time>
      </trkpt>
      <trkpt lat="49.22903" lon="1.83648">
        <ele>122</ele>
        <time>2016-12-12T08:49:42Z</time>
      </trkpt>
      <trkpt lat="49.22902" lon="1.83654">
        <ele>121</ele>
        <time>2016-12-12T08:49:47Z</time>
      </trkpt>
      <trkpt lat="49.22902" lon="1.83664">
        <ele>117</ele>
        <time>2016-12-12T08:49:56Z</time>
      </trkpt>
      <trkpt lat="49.22894" lon="1.83682">
        <ele>117</ele>
        <time>2016-12-12T08:50:06Z</time>
      </trkpt>
      <trkpt lat="49.22891" lon="1.83685">
        <ele>119</ele>
        <time>2016-12-12T08:50:09Z</time>
      </trkpt>
      <trkpt lat="49.22889" lon="1.83693">
        <ele>120</ele>
        <time>2016-12-12T08:50:17Z</time>
      </trkpt>
      <trkpt lat="49.22884" lon="1.837">
        <ele>121</ele>
        <time>2016-12-12T08:50:22Z</time>
      </trkpt>
      <trkpt lat="49.22873" lon="1.8373">
        <ele>120</ele>
        <time>2016-12-12T08:50:44Z</time>
      </trkpt>
      <trkpt lat="49.22866" lon="1.83744">
        <ele>120</ele>
        <time>2016-12-12T08:50:55Z</time>
      </trkpt>
      <trkpt lat="49.22864" lon="1.83754">
        <ele>119</ele>
        <time>2016-12-12T08:51:01Z</time>
      </trkpt>
      <trkpt lat="49.22848" lon="1.83796">
        <ele>118</ele>
        <time>2016-12-12T08:51:31Z</time>
      </trkpt>
      <trkpt lat="49.22844" lon="1.83805">
        <ele>119</ele>
        <time>2016-12-12T08:51:37Z</time>
      </trkpt>
      <trkpt lat="49.22842" lon="1.83815">
        <ele>120</ele>
        <time>2016-12-12T08:51:43Z</time>
      </trkpt>
      <trkpt lat="49.22838" lon="1.83824">
        <ele>122</ele>
        <time>2016-12-12T08:51:48Z</time>
      </trkpt>
      <trkpt lat="49.22835" lon="1.83824">
        <ele>122</ele>
        <time>2016-12-12T08:51:50Z</time>
      </trkpt>
      <trkpt lat="49.22832" lon="1.83833">
        <ele>123</ele>
        <time>2016-12-12T08:51:56Z</time>
      </trkpt>
      <trkpt lat="49.22825" lon="1.8385">
        <ele>122</ele>
        <time>2016-12-12T08:52:10Z</time>
      </trkpt>
      <trkpt lat="49.22822" lon="1.83864">
        <ele>120</ele>
        <time>2016-12-12T08:52:18Z</time>
      </trkpt>
      <trkpt lat="49.22821" lon="1.83869">
        <ele>120</ele>
        <time>2016-12-12T08:52:21Z</time>
      </trkpt>
      <trkpt lat="49.22818" lon="1.83873">
        <ele>119</ele>
        <time>2016-12-12T08:52:24Z</time>
      </trkpt>
      <trkpt lat="49.22814" lon="1.8388">
        <ele>119</ele>
        <time>2016-12-12T08:52:30Z</time>
      </trkpt>
      <trkpt lat="49.22815" lon="1.83884">
        <ele>121</ele>
        <time>2016-12-12T08:52:33Z</time>
      </trkpt>
      <trkpt lat="49.22814" lon="1.83888">
        <ele>121</ele>
        <time>2016-12-12T08:52:35Z</time>
      </trkpt>
      <trkpt lat="49.2281" lon="1.83902">
        <ele>121</ele>
        <time>2016-12-12T08:52:48Z</time>
      </trkpt>
      <trkpt lat="49.22805" lon="1.83919">
        <ele>119</ele>
        <time>2016-12-12T08:53:00Z</time>
      </trkpt>
      <trkpt lat="49.22801" lon="1.83927">
        <ele>120</ele>
        <time>2016-12-12T08:53:07Z</time>
      </trkpt>
      <trkpt lat="49.22791" lon="1.83947">
        <ele>122</ele>
        <time>2016-12-12T08:53:19Z</time>
      </trkpt>
      <trkpt lat="49.22786" lon="1.83954">
        <ele>123</ele>
        <time>2016-12-12T08:53:26Z</time>
      </trkpt>
      <trkpt lat="49.22783" lon="1.83962">
        <ele>125</ele>
        <time>2016-12-12T08:53:32Z</time>
      </trkpt>
      <trkpt lat="49.22779" lon="1.83975">
        <ele>125</ele>
        <time>2016-12-12T08:53:41Z</time>
      </trkpt>
      <trkpt lat="49.2277" lon="1.83996">
        <ele>123</ele>
        <time>2016-12-12T08:53:57Z</time>
      </trkpt>
      <trkpt lat="49.22761" lon="1.84019">
        <ele>125</ele>
        <time>2016-12-12T08:54:12Z</time>
      </trkpt>
      <trkpt lat="49.22754" lon="1.84038">
        <ele>124</ele>
        <time>2016-12-12T08:54:25Z</time>
      </trkpt>
      <trkpt lat="49.22747" lon="1.84047">
        <ele>125</ele>
        <time>2016-12-12T08:54:35Z</time>
      </trkpt>
      <trkpt lat="49.22735" lon="1.84079">
        <ele>125</ele>
        <time>2016-12-12T08:54:56Z</time>
      </trkpt>
      <trkpt lat="49.22734" lon="1.8409">
        <ele>122</ele>
        <time>2016-12-12T08:55:01Z</time>
      </trkpt>
      <trkpt lat="49.22729" lon="1.84093">
        <ele>124</ele>
        <time>2016-12-12T08:55:06Z</time>
      </trkpt>
      <trkpt lat="49.22726" lon="1.84095">
        <ele>124</ele>
        <time>2016-12-12T08:55:08Z</time>
      </trkpt>
      <trkpt lat="49.22722" lon="1.84107">
        <ele>126</ele>
        <time>2016-12-12T08:55:15Z</time>
      </trkpt>
      <trkpt lat="49.22713" lon="1.84132">
        <ele>125</ele>
        <time>2016-12-12T08:55:34Z</time>
      </trkpt>
      <trkpt lat="49.22708" lon="1.84142">
        <ele>123</ele>
        <time>2016-12-12T08:55:41Z</time>
      </trkpt>
      <trkpt lat="49.22708" lon="1.84147">
        <ele>124</ele>
        <time>2016-12-12T08:55:43Z</time>
      </trkpt>
      <trkpt lat="49.22705" lon="1.8415">
        <ele>125</ele>
        <time>2016-12-12T08:55:46Z</time>
      </trkpt>
      <trkpt lat="49.22697" lon="1.8417">
        <ele>124</ele>
        <time>2016-12-12T08:55:58Z</time>
      </trkpt>
      <trkpt lat="49.22696" lon="1.84175">
        <ele>124</ele>
        <time>2016-12-12T08:56:01Z</time>
      </trkpt>
      <trkpt lat="49.2269" lon="1.84185">
        <ele>126</ele>
        <time>2016-12-12T08:56:08Z</time>
      </trkpt>
      <trkpt lat="49.22689" lon="1.8419">
        <ele>125</ele>
        <time>2016-12-12T08:56:12Z</time>
      </trkpt>
      <trkpt lat="49.22685" lon="1.84198">
        <ele>123</ele>
        <time>2016-12-12T08:56:18Z</time>
      </trkpt>
      <trkpt lat="49.22666" lon="1.84244">
        <ele>122</ele>
        <time>2016-12-12T08:56:50Z</time>
      </trkpt>
      <trkpt lat="49.22658" lon="1.84262">
        <ele>124</ele>
        <time>2016-12-12T08:57:02Z</time>
      </trkpt>
      <trkpt lat="49.22648" lon="1.84283">
        <ele>124</ele>
        <time>2016-12-12T08:57:17Z</time>
      </trkpt>
      <trkpt lat="49.22639" lon="1.84298">
        <ele>127</ele>
        <time>2016-12-12T08:57:29Z</time>
      </trkpt>
      <trkpt lat="49.22638" lon="1.84303">
        <ele>127</ele>
        <time>2016-12-12T08:57:31Z</time>
      </trkpt>
      <trkpt lat="49.22637" lon="1.84307">
        <ele>127</ele>
        <time>2016-12-12T08:57:33Z</time>
      </trkpt>
      <trkpt lat="49.22633" lon="1.84308">
        <ele>127</ele>
        <time>2016-12-12T08:57:36Z</time>
      </trkpt>
      <trkpt lat="49.22633" lon="1.84312">
        <ele>127</ele>
        <time>2016-12-12T08:57:38Z</time>
      </trkpt>
      <trkpt lat="49.22626" lon="1.8435">
        <ele>122</ele>
        <time>2016-12-12T08:58:00Z</time>
      </trkpt>
      <trkpt lat="49.22623" lon="1.84365">
        <ele>120</ele>
        <time>2016-12-12T08:58:08Z</time>
      </trkpt>
      <trkpt lat="49.22621" lon="1.84368">
        <ele>120</ele>
        <time>2016-12-12T08:58:12Z</time>
      </trkpt>
      <trkpt lat="49.22607" lon="1.8442">
        <ele>122</ele>
        <time>2016-12-12T08:58:44Z</time>
      </trkpt>
      <trkpt lat="49.22595" lon="1.84465">
        <ele>120</ele>
        <time>2016-12-12T08:59:14Z</time>
      </trkpt>
      <trkpt lat="49.22593" lon="1.84469">
        <ele>121</ele>
        <time>2016-12-12T08:59:17Z</time>
      </trkpt>
      <trkpt lat="49.22594" lon="1.84475">
        <ele>121</ele>
        <time>2016-12-12T08:59:20Z</time>
      </trkpt>
      <trkpt lat="49.22589" lon="1.84482">
        <ele>123</ele>
        <time>2016-12-12T08:59:25Z</time>
      </trkpt>
      <trkpt lat="49.22589" lon="1.84487">
        <ele>123</ele>
        <time>2016-12-12T08:59:27Z</time>
      </trkpt>
      <trkpt lat="49.22583" lon="1.84499">
        <ele>124</ele>
        <time>2016-12-12T08:59:36Z</time>
      </trkpt>
      <trkpt lat="49.22574" lon="1.84548">
        <ele>120</ele>
        <time>2016-12-12T09:00:06Z</time>
      </trkpt>
      <trkpt lat="49.22572" lon="1.84557">
        <ele>119</ele>
        <time>2016-12-12T09:00:12Z</time>
      </trkpt>
      <trkpt lat="49.22567" lon="1.84566">
        <ele>120</ele>
        <time>2016-12-12T09:00:17Z</time>
      </trkpt>
      <trkpt lat="49.22554" lon="1.84612">
        <ele>121</ele>
        <time>2016-12-12T09:00:47Z</time>
      </trkpt>
      <trkpt lat="49.22551" lon="1.84627">
        <ele>121</ele>
        <time>2016-12-12T09:00:55Z</time>
      </trkpt>
      <trkpt lat="49.22546" lon="1.84645">
        <ele>121</ele>
        <time>2016-12-12T09:01:05Z</time>
      </trkpt>
      <trkpt lat="49.22536" lon="1.84682">
        <ele>125</ele>
        <time>2016-12-12T09:01:31Z</time>
      </trkpt>
      <trkpt lat="49.22531" lon="1.84702">
        <ele>123</ele>
        <time>2016-12-12T09:01:43Z</time>
      </trkpt>
      <trkpt lat="49.22518" lon="1.84761">
        <ele>125</ele>
        <time>2016-12-12T09:02:15Z</time>
      </trkpt>
      <trkpt lat="49.22513" lon="1.848">
        <ele>123</ele>
        <time>2016-12-12T09:02:37Z</time>
      </trkpt>
      <trkpt lat="49.22513" lon="1.84804">
        <ele>123</ele>
        <time>2016-12-12T09:02:39Z</time>
      </trkpt>
      <trkpt lat="49.22511" lon="1.84808">
        <ele>123</ele>
        <time>2016-12-12T09:02:42Z</time>
      </trkpt>
      <trkpt lat="49.225" lon="1.84856">
        <ele>125</ele>
        <time>2016-12-12T09:03:12Z</time>
      </trkpt>
      <trkpt lat="49.22494" lon="1.84884">
        <ele>126</ele>
        <time>2016-12-12T09:03:28Z</time>
      </trkpt>
      <trkpt lat="49.22484" lon="1.84934">
        <ele>125</ele>
        <time>2016-12-12T09:03:59Z</time>
      </trkpt>
      <trkpt lat="49.22473" lon="1.84986">
        <ele>123</ele>
        <time>2016-12-12T09:04:32Z</time>
      </trkpt>
      <trkpt lat="49.22461" lon="1.85037">
        <ele>122</ele>
        <time>2016-12-12T09:05:02Z</time>
      </trkpt>
      <trkpt lat="49.22462" lon="1.85041">
        <ele>122</ele>
        <time>2016-12-12T09:05:04Z</time>
      </trkpt>
      <trkpt lat="49.22445" lon="1.85095">
        <ele>121</ele>
        <time>2016-12-12T09:05:36Z</time>
      </trkpt>
      <trkpt lat="49.22443" lon="1.85098">
        <ele>122</ele>
        <time>2016-12-12T09:05:38Z</time>
      </trkpt>
      <trkpt lat="49.22443" lon="1.85108">
        <ele>122</ele>
        <time>2016-12-12T09:05:44Z</time>
      </trkpt>
      <trkpt lat="49.2244" lon="1.85113">
        <ele>121</ele>
        <time>2016-12-12T09:05:47Z</time>
      </trkpt>
      <trkpt lat="49.22439" lon="1.85119">
        <ele>120</ele>
        <time>2016-12-12T09:05:50Z</time>
      </trkpt>
      <trkpt lat="49.22437" lon="1.85122">
        <ele>120</ele>
        <time>2016-12-12T09:05:53Z</time>
      </trkpt>
      <trkpt lat="49.22422" lon="1.85173">
        <ele>120</ele>
        <time>2016-12-12T09:06:24Z</time>
      </trkpt>
      <trkpt lat="49.22411" lon="1.85211">
        <ele>124</ele>
        <time>2016-12-12T09:06:49Z</time>
      </trkpt>
      <trkpt lat="49.22409" lon="1.85219">
        <ele>124</ele>
        <time>2016-12-12T09:06:53Z</time>
      </trkpt>
      <trkpt lat="49.22404" lon="1.85227">
        <ele>124</ele>
        <time>2016-12-12T09:06:59Z</time>
      </trkpt>
      <trkpt lat="49.22403" lon="1.85244">
        <ele>124</ele>
        <time>2016-12-12T09:07:09Z</time>
      </trkpt>
      <trkpt lat="49.22393" lon="1.85294">
        <ele>120</ele>
        <time>2016-12-12T09:07:39Z</time>
      </trkpt>
      <trkpt lat="49.22391" lon="1.85296">
        <ele>120</ele>
        <time>2016-12-12T09:07:41Z</time>
      </trkpt>
      <trkpt lat="49.22386" lon="1.85315">
        <ele>122</ele>
        <time>2016-12-12T09:07:52Z</time>
      </trkpt>
      <trkpt lat="49.22385" lon="1.85328">
        <ele>122</ele>
        <time>2016-12-12T09:08:00Z</time>
      </trkpt>
      <trkpt lat="49.22373" lon="1.85381">
        <ele>118</ele>
        <time>2016-12-12T09:08:32Z</time>
      </trkpt>
      <trkpt lat="49.22359" lon="1.85428">
        <ele>114</ele>
        <time>2016-12-12T09:09:04Z</time>
      </trkpt>
      <trkpt lat="49.22359" lon="1.85433">
        <ele>115</ele>
        <time>2016-12-12T09:09:07Z</time>
      </trkpt>
      <trkpt lat="49.22356" lon="1.85441">
        <ele>116</ele>
        <time>2016-12-12T09:09:12Z</time>
      </trkpt>
      <trkpt lat="49.22356" lon="1.85447">
        <ele>116</ele>
        <time>2016-12-12T09:09:14Z</time>
      </trkpt>
      <trkpt lat="49.22351" lon="1.85468">
        <ele>118</ele>
        <time>2016-12-12T09:09:28Z</time>
      </trkpt>
      <trkpt lat="49.22346" lon="1.85485">
        <ele>118</ele>
        <time>2016-12-12T09:09:38Z</time>
      </trkpt>
      <trkpt lat="49.22342" lon="1.85488">
        <ele>119</ele>
        <time>2016-12-12T09:09:41Z</time>
      </trkpt>
      <trkpt lat="49.22341" lon="1.85497">
        <ele>120</ele>
        <time>2016-12-12T09:09:47Z</time>
      </trkpt>
      <trkpt lat="49.22339" lon="1.85501">
        <ele>120</ele>
        <time>2016-12-12T09:09:50Z</time>
      </trkpt>
      <trkpt lat="49.2234" lon="1.85509">
        <ele>121</ele>
        <time>2016-12-12T09:09:57Z</time>
      </trkpt>
      <trkpt lat="49.22333" lon="1.85519">
        <ele>122</ele>
        <time>2016-12-12T09:10:06Z</time>
      </trkpt>
      <trkpt lat="49.22334" lon="1.85525">
        <ele>122</ele>
        <time>2016-12-12T09:10:08Z</time>
      </trkpt>
      <trkpt lat="49.22321" lon="1.85582">
        <ele>121</ele>
        <time>2016-12-12T09:10:40Z</time>
      </trkpt>
      <trkpt lat="49.22306" lon="1.85634">
        <ele>118</ele>
        <time>2016-12-12T09:11:11Z</time>
      </trkpt>
      <trkpt lat="49.223" lon="1.85649">
        <ele>119</ele>
        <time>2016-12-12T09:11:21Z</time>
      </trkpt>
      <trkpt lat="49.223" lon="1.85654">
        <ele>119</ele>
        <time>2016-12-12T09:11:24Z</time>
      </trkpt>
      <trkpt lat="49.22305" lon="1.85671">
        <ele>118</ele>
        <time>2016-12-12T09:11:36Z</time>
      </trkpt>
      <trkpt lat="49.22308" lon="1.85673">
        <ele>117</ele>
        <time>2016-12-12T09:11:40Z</time>
      </trkpt>
      <trkpt lat="49.22312" lon="1.85685">
        <ele>116</ele>
        <time>2016-12-12T09:11:46Z</time>
      </trkpt>
      <trkpt lat="49.22325" lon="1.85736">
        <ele>117</ele>
        <time>2016-12-12T09:12:18Z</time>
      </trkpt>
      <trkpt lat="49.22326" lon="1.85742">
        <ele>117</ele>
        <time>2016-12-12T09:12:21Z</time>
      </trkpt>
      <trkpt lat="49.22329" lon="1.85745">
        <ele>115</ele>
        <time>2016-12-12T09:12:25Z</time>
      </trkpt>
      <trkpt lat="49.22332" lon="1.85765">
        <ele>115</ele>
        <time>2016-12-12T09:12:36Z</time>
      </trkpt>
      <trkpt lat="49.22339" lon="1.85777">
        <ele>116</ele>
        <time>2016-12-12T09:12:46Z</time>
      </trkpt>
      <trkpt lat="49.22339" lon="1.85783">
        <ele>115</ele>
        <time>2016-12-12T09:12:49Z</time>
      </trkpt>
      <trkpt lat="49.22341" lon="1.85786">
        <ele>115</ele>
        <time>2016-12-12T09:12:53Z</time>
      </trkpt>
      <trkpt lat="49.22343" lon="1.85802">
        <ele>115</ele>
        <time>2016-12-12T09:12:59Z</time>
      </trkpt>
      <trkpt lat="49.22351" lon="1.85818">
        <ele>116</ele>
        <time>2016-12-12T09:13:14Z</time>
      </trkpt>
      <trkpt lat="49.2236" lon="1.85848">
        <ele>113</ele>
        <time>2016-12-12T09:13:32Z</time>
      </trkpt>
      <trkpt lat="49.22359" lon="1.85853">
        <ele>113</ele>
        <time>2016-12-12T09:13:35Z</time>
      </trkpt>
      <trkpt lat="49.22361" lon="1.85857">
        <ele>113</ele>
        <time>2016-12-12T09:13:39Z</time>
      </trkpt>
      <trkpt lat="49.22368" lon="1.8587">
        <ele>111</ele>
        <time>2016-12-12T09:13:52Z</time>
      </trkpt>
      <trkpt lat="49.22374" lon="1.85902">
        <ele>113</ele>
        <time>2016-12-12T09:14:09Z</time>
      </trkpt>
      <trkpt lat="49.22383" lon="1.85922">
        <ele>112</ele>
        <time>2016-12-12T09:14:22Z</time>
      </trkpt>
      <trkpt lat="49.224" lon="1.85964">
        <ele>109</ele>
        <time>2016-12-12T09:14:53Z</time>
      </trkpt>
      <trkpt lat="49.224" lon="1.85968">
        <ele>109</ele>
        <time>2016-12-12T09:14:57Z</time>
      </trkpt>
      <trkpt lat="49.22405" lon="1.85975">
        <ele>110</ele>
        <time>2016-12-12T09:15:02Z</time>
      </trkpt>
      <trkpt lat="49.22414" lon="1.86002">
        <ele>111</ele>
        <time>2016-12-12T09:15:18Z</time>
      </trkpt>
      <trkpt lat="49.22414" lon="1.86018">
        <ele>108</ele>
        <time>2016-12-12T09:15:28Z</time>
      </trkpt>
      <trkpt lat="49.2242" lon="1.86069">
        <ele>111</ele>
        <time>2016-12-12T09:15:56Z</time>
      </trkpt>
      <trkpt lat="49.22422" lon="1.86069">
        <ele>110</ele>
        <time>2016-12-12T09:15:59Z</time>
      </trkpt>
      <trkpt lat="49.22434" lon="1.86125">
        <ele>105</ele>
        <time>2016-12-12T09:16:31Z</time>
      </trkpt>
      <trkpt lat="49.22438" lon="1.86135">
        <ele>107</ele>
        <time>2016-12-12T09:16:39Z</time>
      </trkpt>
      <trkpt lat="49.22441" lon="1.86137">
        <ele>106</ele>
        <time>2016-12-12T09:16:42Z</time>
      </trkpt>
      <trkpt lat="49.22447" lon="1.86165">
        <ele>108</ele>
        <time>2016-12-12T09:16:59Z</time>
      </trkpt>
      <trkpt lat="49.22457" lon="1.86197">
        <ele>107</ele>
        <time>2016-12-12T09:17:18Z</time>
      </trkpt>
      <trkpt lat="49.2246" lon="1.86201">
        <ele>108</ele>
        <time>2016-12-12T09:17:23Z</time>
      </trkpt>
      <trkpt lat="49.22461" lon="1.8621">
        <ele>110</ele>
        <time>2016-12-12T09:17:27Z</time>
      </trkpt>
      <trkpt lat="49.22466" lon="1.86219">
        <ele>111</ele>
        <time>2016-12-12T09:17:34Z</time>
      </trkpt>
      <trkpt lat="49.22466" lon="1.86223">
        <ele>110</ele>
        <time>2016-12-12T09:17:37Z</time>
      </trkpt>
      <trkpt lat="49.22472" lon="1.86227">
        <ele>110</ele>
        <time>2016-12-12T09:17:44Z</time>
      </trkpt>
      <trkpt lat="49.22474" lon="1.86231">
        <ele>110</ele>
        <time>2016-12-12T09:17:47Z</time>
      </trkpt>
      <trkpt lat="49.22478" lon="1.86233">
        <ele>111</ele>
        <time>2016-12-12T09:17:51Z</time>
      </trkpt>
      <trkpt lat="49.22481" lon="1.86242">
        <ele>111</ele>
        <time>2016-12-12T09:18:00Z</time>
      </trkpt>
      <trkpt lat="49.22484" lon="1.86244">
        <ele>111</ele>
        <time>2016-12-12T09:18:03Z</time>
      </trkpt>
      <trkpt lat="49.22486" lon="1.86248">
        <ele>111</ele>
        <time>2016-12-12T09:18:18Z</time>
      </trkpt>
      <trkpt lat="49.22491" lon="1.86253">
        <ele>111</ele>
        <time>2016-12-12T09:18:26Z</time>
      </trkpt>
      <trkpt lat="49.22503" lon="1.86271">
        <ele>105</ele>
        <time>2016-12-12T09:18:40Z</time>
      </trkpt>
      <trkpt lat="49.22508" lon="1.86283">
        <ele>103</ele>
        <time>2016-12-12T09:18:47Z</time>
      </trkpt>
      <trkpt lat="49.22513" lon="1.86283">
        <ele>103</ele>
        <time>2016-12-12T09:18:49Z</time>
      </trkpt>
      <trkpt lat="49.22545" lon="1.86317">
        <ele>106</ele>
        <time>2016-12-12T09:19:21Z</time>
      </trkpt>
      <trkpt lat="49.22548" lon="1.86318">
        <ele>106</ele>
        <time>2016-12-12T09:19:24Z</time>
      </trkpt>
      <trkpt lat="49.22552" lon="1.86327">
        <ele>106</ele>
        <time>2016-12-12T09:19:32Z</time>
      </trkpt>
      <trkpt lat="49.22555" lon="1.86332">
        <ele>107</ele>
        <time>2016-12-12T09:19:35Z</time>
      </trkpt>
      <trkpt lat="49.22559" lon="1.86332">
        <ele>108</ele>
        <time>2016-12-12T09:19:38Z</time>
      </trkpt>
      <trkpt lat="49.22563" lon="1.86333">
        <ele>106</ele>
        <time>2016-12-12T09:19:43Z</time>
      </trkpt>
      <trkpt lat="49.22565" lon="1.86339">
        <ele>107</ele>
        <time>2016-12-12T09:19:45Z</time>
      </trkpt>
      <trkpt lat="49.2258" lon="1.86362">
        <ele>113</ele>
        <time>2016-12-12T09:19:59Z</time>
      </trkpt>
      <trkpt lat="49.22586" lon="1.86371">
        <ele>113</ele>
        <time>2016-12-12T09:20:06Z</time>
      </trkpt>
      <trkpt lat="49.22589" lon="1.8637">
        <ele>112</ele>
        <time>2016-12-12T09:20:10Z</time>
      </trkpt>
      <trkpt lat="49.22595" lon="1.86378">
        <ele>108</ele>
        <time>2016-12-12T09:20:18Z</time>
      </trkpt>
      <trkpt lat="49.22602" lon="1.86386">
        <ele>106</ele>
        <time>2016-12-12T09:20:27Z</time>
      </trkpt>
      <trkpt lat="49.22604" lon="1.8639">
        <ele>105</ele>
        <time>2016-12-12T09:20:30Z</time>
      </trkpt>
      <trkpt lat="49.22607" lon="1.86389">
        <ele>105</ele>
        <time>2016-12-12T09:20:33Z</time>
      </trkpt>
      <trkpt lat="49.22621" lon="1.86397">
        <ele>107</ele>
        <time>2016-12-12T09:20:46Z</time>
      </trkpt>
      <trkpt lat="49.22623" lon="1.86412">
        <ele>107</ele>
        <time>2016-12-12T09:20:51Z</time>
      </trkpt>
      <trkpt lat="49.22627" lon="1.86414">
        <ele>108</ele>
        <time>2016-12-12T09:20:54Z</time>
      </trkpt>
      <trkpt lat="49.22637" lon="1.86444">
        <ele>114</ele>
        <time>2016-12-12T09:21:06Z</time>
      </trkpt>
      <trkpt lat="49.22644" lon="1.86443">
        <ele>115</ele>
        <time>2016-12-12T09:21:14Z</time>
      </trkpt>
      <trkpt lat="49.22646" lon="1.86446">
        <ele>114</ele>
        <time>2016-12-12T09:21:17Z</time>
      </trkpt>
      <trkpt lat="49.22649" lon="1.86445">
        <ele>114</ele>
        <time>2016-12-12T09:21:19Z</time>
      </trkpt>
      <trkpt lat="49.22654" lon="1.86452">
        <ele>113</ele>
        <time>2016-12-12T09:21:25Z</time>
      </trkpt>
      <trkpt lat="49.22654" lon="1.86459">
        <ele>114</ele>
        <time>2016-12-12T09:21:27Z</time>
      </trkpt>
      <trkpt lat="49.22655" lon="1.86465">
        <ele>114</ele>
        <time>2016-12-12T09:21:32Z</time>
      </trkpt>
      <trkpt lat="49.22658" lon="1.86468">
        <ele>115</ele>
        <time>2016-12-12T09:21:35Z</time>
      </trkpt>
      <trkpt lat="49.22657" lon="1.86472">
        <ele>114</ele>
        <time>2016-12-12T09:21:37Z</time>
      </trkpt>
      <trkpt lat="49.2266" lon="1.86492">
        <ele>113</ele>
        <time>2016-12-12T09:21:46Z</time>
      </trkpt>
      <trkpt lat="49.22671" lon="1.8651">
        <ele>110</ele>
        <time>2016-12-12T09:22:01Z</time>
      </trkpt>
      <trkpt lat="49.22675" lon="1.86528">
        <ele>108</ele>
        <time>2016-12-12T09:22:13Z</time>
      </trkpt>
      <trkpt lat="49.22683" lon="1.8655">
        <ele>108</ele>
        <time>2016-12-12T09:22:27Z</time>
      </trkpt>
      <trkpt lat="49.22688" lon="1.86564">
        <ele>106</ele>
        <time>2016-12-12T09:22:36Z</time>
      </trkpt>
      <trkpt lat="49.22691" lon="1.86566">
        <ele>106</ele>
        <time>2016-12-12T09:22:39Z</time>
      </trkpt>
      <trkpt lat="49.22695" lon="1.86578">
        <ele>104</ele>
        <time>2016-12-12T09:22:48Z</time>
      </trkpt>
      <trkpt lat="49.22696" lon="1.86583">
        <ele>105</ele>
        <time>2016-12-12T09:22:51Z</time>
      </trkpt>
      <trkpt lat="49.22698" lon="1.86592">
        <ele>108</ele>
        <time>2016-12-12T09:22:57Z</time>
      </trkpt>
      <trkpt lat="49.227" lon="1.86596">
        <ele>108</ele>
        <time>2016-12-12T09:23:00Z</time>
      </trkpt>
      <trkpt lat="49.22701" lon="1.866">
        <ele>109</ele>
        <time>2016-12-12T09:23:02Z</time>
      </trkpt>
      <trkpt lat="49.22712" lon="1.8663">
        <ele>109</ele>
        <time>2016-12-12T09:23:25Z</time>
      </trkpt>
      <trkpt lat="49.22715" lon="1.86632">
        <ele>109</ele>
        <time>2016-12-12T09:23:29Z</time>
      </trkpt>
      <trkpt lat="49.22716" lon="1.86648">
        <ele>108</ele>
        <time>2016-12-12T09:23:38Z</time>
      </trkpt>
      <trkpt lat="49.22718" lon="1.86677">
        <ele>107</ele>
        <time>2016-12-12T09:23:54Z</time>
      </trkpt>
      <trkpt lat="49.22722" lon="1.86674">
        <ele>107</ele>
        <time>2016-12-12T09:23:56Z</time>
      </trkpt>
      <trkpt lat="49.22723" lon="1.8669">
        <ele>106</ele>
        <time>2016-12-12T09:24:05Z</time>
      </trkpt>
      <trkpt lat="49.22724" lon="1.86702">
        <ele>106</ele>
        <time>2016-12-12T09:24:12Z</time>
      </trkpt>
      <trkpt lat="49.22727" lon="1.86706">
        <ele>105</ele>
        <time>2016-12-12T09:24:15Z</time>
      </trkpt>
      <trkpt lat="49.22727" lon="1.86728">
        <ele>105</ele>
        <time>2016-12-12T09:24:29Z</time>
      </trkpt>
      <trkpt lat="49.22729" lon="1.86757">
        <ele>102</ele>
        <time>2016-12-12T09:24:49Z</time>
      </trkpt>
      <trkpt lat="49.22729" lon="1.86785">
        <ele>103</ele>
        <time>2016-12-12T09:25:02Z</time>
      </trkpt>
      <trkpt lat="49.22732" lon="1.86791">
        <ele>102</ele>
        <time>2016-12-12T09:25:06Z</time>
      </trkpt>
      <trkpt lat="49.22735" lon="1.86849">
        <ele>101</ele>
        <time>2016-12-12T09:25:38Z</time>
      </trkpt>
      <trkpt lat="49.22742" lon="1.86889">
        <ele>99</ele>
        <time>2016-12-12T09:26:00Z</time>
      </trkpt>
      <trkpt lat="49.22746" lon="1.86908">
        <ele>98</ele>
        <time>2016-12-12T09:26:10Z</time>
      </trkpt>
      <trkpt lat="49.22749" lon="1.86909">
        <ele>99</ele>
        <time>2016-12-12T09:26:13Z</time>
      </trkpt>
      <trkpt lat="49.22751" lon="1.86914">
        <ele>97</ele>
        <time>2016-12-12T09:26:17Z</time>
      </trkpt>
      <trkpt lat="49.22752" lon="1.86937">
        <ele>99</ele>
        <time>2016-12-12T09:26:28Z</time>
      </trkpt>
      <trkpt lat="49.22758" lon="1.86988">
        <ele>96</ele>
        <time>2016-12-12T09:26:59Z</time>
      </trkpt>
      <trkpt lat="49.2276" lon="1.86993">
        <ele>95</ele>
        <time>2016-12-12T09:27:02Z</time>
      </trkpt>
      <trkpt lat="49.22759" lon="1.86997">
        <ele>94</ele>
        <time>2016-12-12T09:27:05Z</time>
      </trkpt>
      <trkpt lat="49.22762" lon="1.87003">
        <ele>93</ele>
        <time>2016-12-12T09:27:11Z</time>
      </trkpt>
      <trkpt lat="49.22765" lon="1.87061">
        <ele>92</ele>
        <time>2016-12-12T09:27:41Z</time>
      </trkpt>
      <trkpt lat="49.22766" lon="1.87071">
        <ele>92</ele>
        <time>2016-12-12T09:27:46Z</time>
      </trkpt>
      <trkpt lat="49.22767" lon="1.87081">
        <ele>93</ele>
        <time>2016-12-12T09:27:55Z</time>
      </trkpt>
      <trkpt lat="49.22769" lon="1.87091">
        <ele>93</ele>
        <time>2016-12-12T09:28:02Z</time>
      </trkpt>
      <trkpt lat="49.2277" lon="1.87097">
        <ele>93</ele>
        <time>2016-12-12T09:28:05Z</time>
      </trkpt>
      <trkpt lat="49.22773" lon="1.87098">
        <ele>92</ele>
        <time>2016-12-12T09:28:08Z</time>
      </trkpt>
      <trkpt lat="49.2278" lon="1.8711">
        <ele>86</ele>
        <time>2016-12-12T09:28:19Z</time>
      </trkpt>
      <trkpt lat="49.22783" lon="1.87129">
        <ele>85</ele>
        <time>2016-12-12T09:28:30Z</time>
      </trkpt>
      <trkpt lat="49.22781" lon="1.87137">
        <ele>84</ele>
        <time>2016-12-12T09:28:33Z</time>
      </trkpt>
      <trkpt lat="49.22777" lon="1.87142">
        <ele>84</ele>
        <time>2016-12-12T09:28:37Z</time>
      </trkpt>
      <trkpt lat="49.22781" lon="1.87148">
        <ele>83</ele>
        <time>2016-12-12T09:28:42Z</time>
      </trkpt>
      <trkpt lat="49.22784" lon="1.87155">
        <ele>82</ele>
        <time>2016-12-12T09:28:46Z</time>
      </trkpt>
      <trkpt lat="49.22782" lon="1.87165">
        <ele>81</ele>
        <time>2016-12-12T09:28:52Z</time>
      </trkpt>
      <trkpt lat="49.22781" lon="1.87173">
        <ele>80</ele>
        <time>2016-12-12T09:29:00Z</time>
      </trkpt>
      <trkpt lat="49.22779" lon="1.87185">
        <ele>79</ele>
        <time>2016-12-12T09:29:08Z</time>
      </trkpt>
      <trkpt lat="49.22779" lon="1.87193">
        <ele>81</ele>
        <time>2016-12-12T09:29:11Z</time>
      </trkpt>
      <trkpt lat="49.22782" lon="1.87197">
        <ele>83</ele>
        <time>2016-12-12T09:29:15Z</time>
      </trkpt>
      <trkpt lat="49.22818" lon="1.87204">
        <ele>84</ele>
        <time>2016-12-12T09:29:47Z</time>
      </trkpt>
      <trkpt lat="49.22822" lon="1.87208">
        <ele>85</ele>
        <time>2016-12-12T09:29:51Z</time>
      </trkpt>
      <trkpt lat="49.22828" lon="1.87207">
        <ele>86</ele>
        <time>2016-12-12T09:29:58Z</time>
      </trkpt>
      <trkpt lat="49.22831" lon="1.87202">
        <ele>85</ele>
        <time>2016-12-12T09:30:02Z</time>
      </trkpt>
      <trkpt lat="49.22836" lon="1.87203">
        <ele>85</ele>
        <time>2016-12-12T09:30:05Z</time>
      </trkpt>
      <trkpt lat="49.2284" lon="1.87199">
        <ele>84</ele>
        <time>2016-12-12T09:30:11Z</time>
      </trkpt>
      <trkpt lat="49.22842" lon="1.87193">
        <ele>81</ele>
        <time>2016-12-12T09:30:12Z</time>
      </trkpt>
      <trkpt lat="49.22851" lon="1.87187">
        <ele>76</ele>
        <time>2016-12-12T09:30:20Z</time>
      </trkpt>
      <trkpt lat="49.22881" lon="1.87174">
        <ele>78</ele>
        <time>2016-12-12T09:30:51Z</time>
      </trkpt>
      <trkpt lat="49.22883" lon="1.87169">
        <ele>76</ele>
        <time>2016-12-12T09:30:56Z</time>
      </trkpt>
      <trkpt lat="49.22887" lon="1.87168">
        <ele>75</ele>
        <time>2016-12-12T09:31:01Z</time>
      </trkpt>
      <trkpt lat="49.22892" lon="1.87168">
        <ele>76</ele>
        <time>2016-12-12T09:31:04Z</time>
      </trkpt>
      <trkpt lat="49.22897" lon="1.87163">
        <ele>77</ele>
        <time>2016-12-12T09:31:09Z</time>
      </trkpt>
      <trkpt lat="49.22906" lon="1.87157">
        <ele>79</ele>
        <time>2016-12-12T09:31:15Z</time>
      </trkpt>
      <trkpt lat="49.22911" lon="1.87158">
        <ele>81</ele>
        <time>2016-12-12T09:31:21Z</time>
      </trkpt>
      <trkpt lat="49.22944" lon="1.87129">
        <ele>80</ele>
        <time>2016-12-12T09:31:54Z</time>
      </trkpt>
      <trkpt lat="49.22953" lon="1.87123">
        <ele>77</ele>
        <time>2016-12-12T09:32:04Z</time>
      </trkpt>
      <trkpt lat="49.22982" lon="1.87103">
        <ele>77</ele>
        <time>2016-12-12T09:32:34Z</time>
      </trkpt>
      <trkpt lat="49.22986" lon="1.871">
        <ele>78</ele>
        <time>2016-12-12T09:32:37Z</time>
      </trkpt>
      <trkpt lat="49.22996" lon="1.87088">
        <ele>78</ele>
        <time>2016-12-12T09:32:49Z</time>
      </trkpt>
      <trkpt lat="49.23001" lon="1.87079">
        <ele>77</ele>
        <time>2016-12-12T09:32:59Z</time>
      </trkpt>
      <trkpt lat="49.23007" lon="1.87073">
        <ele>74</ele>
        <time>2016-12-12T09:33:06Z</time>
      </trkpt>
      <trkpt lat="49.23012" lon="1.87065">
        <ele>75</ele>
        <time>2016-12-12T09:33:11Z</time>
      </trkpt>
      <trkpt lat="49.23016" lon="1.87063">
        <ele>78</ele>
        <time>2016-12-12T09:33:14Z</time>
      </trkpt>
      <trkpt lat="49.23017" lon="1.87055">
        <ele>80</ele>
        <time>2016-12-12T09:33:20Z</time>
      </trkpt>
      <trkpt lat="49.23023" lon="1.87048">
        <ele>82</ele>
        <time>2016-12-12T09:33:26Z</time>
      </trkpt>
      <trkpt lat="49.23023" lon="1.87043">
        <ele>83</ele>
        <time>2016-12-12T09:33:32Z</time>
      </trkpt>
      <trkpt lat="49.23025" lon="1.87036">
        <ele>84</ele>
        <time>2016-12-12T09:33:41Z</time>
      </trkpt>
      <trkpt lat="49.23042" lon="1.87011">
        <ele>81</ele>
        <time>2016-12-12T09:34:01Z</time>
      </trkpt>
      <trkpt lat="49.23042" lon="1.87005">
        <ele>81</ele>
        <time>2016-12-12T09:34:07Z</time>
      </trkpt>
      <trkpt lat="49.23046" lon="1.87002">
        <ele>81</ele>
        <time>2016-12-12T09:34:09Z</time>
      </trkpt>
      <trkpt lat="49.2305" lon="1.86999">
        <ele>83</ele>
        <time>2016-12-12T09:34:13Z</time>
      </trkpt>
      <trkpt lat="49.23053" lon="1.86996">
        <ele>84</ele>
        <time>2016-12-12T09:34:16Z</time>
      </trkpt>
      <trkpt lat="49.23055" lon="1.86993">
        <ele>86</ele>
        <time>2016-12-12T09:34:19Z</time>
      </trkpt>
      <trkpt lat="49.23064" lon="1.86979">
        <ele>86</ele>
        <time>2016-12-12T09:34:32Z</time>
      </trkpt>
      <trkpt lat="49.23064" lon="1.86973">
        <ele>87</ele>
        <time>2016-12-12T09:34:36Z</time>
      </trkpt>
      <trkpt lat="49.23069" lon="1.86965">
        <ele>87</ele>
        <time>2016-12-12T09:34:41Z</time>
      </trkpt>
      <trkpt lat="49.23072" lon="1.86963">
        <ele>87</ele>
        <time>2016-12-12T09:34:43Z</time>
      </trkpt>
      <trkpt lat="49.23073" lon="1.86957">
        <ele>87</ele>
        <time>2016-12-12T09:34:46Z</time>
      </trkpt>
      <trkpt lat="49.23076" lon="1.86948">
        <ele>88</ele>
        <time>2016-12-12T09:34:53Z</time>
      </trkpt>
      <trkpt lat="49.23075" lon="1.86943">
        <ele>87</ele>
        <time>2016-12-12T09:34:57Z</time>
      </trkpt>
      <trkpt lat="49.23078" lon="1.86915">
        <ele>80</ele>
        <time>2016-12-12T09:35:18Z</time>
      </trkpt>
      <trkpt lat="49.23089" lon="1.8689">
        <ele>84</ele>
        <time>2016-12-12T09:35:36Z</time>
      </trkpt>
      <trkpt lat="49.23094" lon="1.86883">
        <ele>86</ele>
        <time>2016-12-12T09:35:49Z</time>
      </trkpt>
      <trkpt lat="49.23098" lon="1.86879">
        <ele>91</ele>
        <time>2016-12-12T09:35:57Z</time>
      </trkpt>
      <trkpt lat="49.23101" lon="1.86869">
        <ele>94</ele>
        <time>2016-12-12T09:36:09Z</time>
      </trkpt>
      <trkpt lat="49.23102" lon="1.86853">
        <ele>96</ele>
        <time>2016-12-12T09:36:20Z</time>
      </trkpt>
      <trkpt lat="49.23106" lon="1.86839">
        <ele>92</ele>
        <time>2016-12-12T09:36:32Z</time>
      </trkpt>
      <trkpt lat="49.23105" lon="1.86814">
        <ele>92</ele>
        <time>2016-12-12T09:36:47Z</time>
      </trkpt>
      <trkpt lat="49.23109" lon="1.86801">
        <ele>93</ele>
        <time>2016-12-12T09:36:56Z</time>
      </trkpt>
      <trkpt lat="49.23111" lon="1.86793">
        <ele>97</ele>
        <time>2016-12-12T09:37:00Z</time>
      </trkpt>
      <trkpt lat="49.23109" lon="1.86767">
        <ele>95</ele>
        <time>2016-12-12T09:37:18Z</time>
      </trkpt>
      <trkpt lat="49.23105" lon="1.86755">
        <ele>94</ele>
        <time>2016-12-12T09:37:22Z</time>
      </trkpt>
      <trkpt lat="49.23103" lon="1.86743">
        <ele>89</ele>
        <time>2016-12-12T09:37:32Z</time>
      </trkpt>
      <trkpt lat="49.23104" lon="1.8672">
        <ele>81</ele>
        <time>2016-12-12T09:37:51Z</time>
      </trkpt>
      <trkpt lat="49.23104" lon="1.86705">
        <ele>82</ele>
        <time>2016-12-12T09:37:59Z</time>
      </trkpt>
      <trkpt lat="49.23108" lon="1.86683">
        <ele>81</ele>
        <time>2016-12-12T09:38:12Z</time>
      </trkpt>
      <trkpt lat="49.23109" lon="1.86671">
        <ele>82</ele>
        <time>2016-12-12T09:38:18Z</time>
      </trkpt>
      <trkpt lat="49.23111" lon="1.86661">
        <ele>85</ele>
        <time>2016-12-12T09:38:26Z</time>
      </trkpt>
      <trkpt lat="49.2311" lon="1.86652">
        <ele>86</ele>
        <time>2016-12-12T09:38:31Z</time>
      </trkpt>
      <trkpt lat="49.23111" lon="1.86639">
        <ele>84</ele>
        <time>2016-12-12T09:38:40Z</time>
      </trkpt>
      <trkpt lat="49.23116" lon="1.86626">
        <ele>85</ele>
        <time>2016-12-12T09:38:48Z</time>
      </trkpt>
      <trkpt lat="49.2311" lon="1.86601">
        <ele>84</ele>
        <time>2016-12-12T09:39:02Z</time>
      </trkpt>
      <trkpt lat="49.23115" lon="1.86589">
        <ele>85</ele>
        <time>2016-12-12T09:39:09Z</time>
      </trkpt>
      <trkpt lat="49.23116" lon="1.86578">
        <ele>87</ele>
        <time>2016-12-12T09:39:15Z</time>
      </trkpt>
      <trkpt lat="49.2312" lon="1.86576">
        <ele>90</ele>
        <time>2016-12-12T09:39:17Z</time>
      </trkpt>
      <trkpt lat="49.23121" lon="1.86561">
        <ele>95</ele>
        <time>2016-12-12T09:39:29Z</time>
      </trkpt>
      <trkpt lat="49.23122" lon="1.86555">
        <ele>95</ele>
        <time>2016-12-12T09:39:32Z</time>
      </trkpt>
      <trkpt lat="49.23122" lon="1.86543">
        <ele>92</ele>
        <time>2016-12-12T09:39:41Z</time>
      </trkpt>
      <trkpt lat="49.23117" lon="1.8653">
        <ele>91</ele>
        <time>2016-12-12T09:39:44Z</time>
      </trkpt>
      <trkpt lat="49.23116" lon="1.86519">
        <ele>87</ele>
        <time>2016-12-12T09:39:53Z</time>
      </trkpt>
      <trkpt lat="49.23117" lon="1.865">
        <ele>86</ele>
        <time>2016-12-12T09:40:10Z</time>
      </trkpt>
      <trkpt lat="49.23118" lon="1.86464">
        <ele>84</ele>
        <time>2016-12-12T09:40:26Z</time>
      </trkpt>
      <trkpt lat="49.23114" lon="1.86455">
        <ele>80</ele>
        <time>2016-12-12T09:40:30Z</time>
      </trkpt>
      <trkpt lat="49.23116" lon="1.86441">
        <ele>79</ele>
        <time>2016-12-12T09:40:41Z</time>
      </trkpt>
      <trkpt lat="49.23124" lon="1.86427">
        <ele>85</ele>
        <time>2016-12-12T09:40:51Z</time>
      </trkpt>
      <trkpt lat="49.23128" lon="1.86412">
        <ele>90</ele>
        <time>2016-12-12T09:41:00Z</time>
      </trkpt>
      <trkpt lat="49.2313" lon="1.86385">
        <ele>91</ele>
        <time>2016-12-12T09:41:14Z</time>
      </trkpt>
      <trkpt lat="49.23131" lon="1.86377">
        <ele>91</ele>
        <time>2016-12-12T09:41:21Z</time>
      </trkpt>
      <trkpt lat="49.23136" lon="1.86374">
        <ele>90</ele>
        <time>2016-12-12T09:41:30Z</time>
      </trkpt>
      <trkpt lat="49.23145" lon="1.86333">
        <ele>89</ele>
        <time>2016-12-12T09:41:52Z</time>
      </trkpt>
      <trkpt lat="49.2315" lon="1.86328">
        <ele>93</ele>
        <time>2016-12-12T09:41:54Z</time>
      </trkpt>
      <trkpt lat="49.23149" lon="1.86311">
        <ele>95</ele>
        <time>2016-12-12T09:42:01Z</time>
      </trkpt>
      <trkpt lat="49.23154" lon="1.86295">
        <ele>93</ele>
        <time>2016-12-12T09:42:17Z</time>
      </trkpt>
      <trkpt lat="49.2315" lon="1.86278">
        <ele>91</ele>
        <time>2016-12-12T09:42:21Z</time>
      </trkpt>
      <trkpt lat="49.23152" lon="1.86268">
        <ele>90</ele>
        <time>2016-12-12T09:42:27Z</time>
      </trkpt>
      <trkpt lat="49.23147" lon="1.86255">
        <ele>90</ele>
        <time>2016-12-12T09:42:34Z</time>
      </trkpt>
      <trkpt lat="49.23148" lon="1.86246">
        <ele>89</ele>
        <time>2016-12-12T09:42:38Z</time>
      </trkpt>
      <trkpt lat="49.23147" lon="1.86239">
        <ele>88</ele>
        <time>2016-12-12T09:42:44Z</time>
      </trkpt>
      <trkpt lat="49.23149" lon="1.86222">
        <ele>89</ele>
        <time>2016-12-12T09:42:51Z</time>
      </trkpt>
      <trkpt lat="49.23145" lon="1.86202">
        <ele>90</ele>
        <time>2016-12-12T09:43:02Z</time>
      </trkpt>
      <trkpt lat="49.23143" lon="1.86189">
        <ele>87</ele>
        <time>2016-12-12T09:43:14Z</time>
      </trkpt>
      <trkpt lat="49.23143" lon="1.86179">
        <ele>85</ele>
        <time>2016-12-12T09:43:23Z</time>
      </trkpt>
      <trkpt lat="49.23137" lon="1.86168">
        <ele>83</ele>
        <time>2016-12-12T09:43:28Z</time>
      </trkpt>
      <trkpt lat="49.23135" lon="1.86153">
        <ele>77</ele>
        <time>2016-12-12T09:43:35Z</time>
      </trkpt>
      <trkpt lat="49.23134" lon="1.86145">
        <ele>77</ele>
        <time>2016-12-12T09:43:38Z</time>
      </trkpt>
      <trkpt lat="49.23138" lon="1.86139">
        <ele>78</ele>
        <time>2016-12-12T09:43:44Z</time>
      </trkpt>
      <trkpt lat="49.23137" lon="1.8613">
        <ele>80</ele>
        <time>2016-12-12T09:43:51Z</time>
      </trkpt>
      <trkpt lat="49.23143" lon="1.86113">
        <ele>84</ele>
        <time>2016-12-12T09:44:03Z</time>
      </trkpt>
      <trkpt lat="49.23141" lon="1.86101">
        <ele>84</ele>
        <time>2016-12-12T09:44:10Z</time>
      </trkpt>
      <trkpt lat="49.23142" lon="1.86093">
        <ele>84</ele>
        <time>2016-12-12T09:44:16Z</time>
      </trkpt>
      <trkpt lat="49.2314" lon="1.86084">
        <ele>83</ele>
        <time>2016-12-12T09:44:21Z</time>
      </trkpt>
      <trkpt lat="49.23143" lon="1.86077">
        <ele>83</ele>
        <time>2016-12-12T09:44:27Z</time>
      </trkpt>
      <trkpt lat="49.23147" lon="1.86063">
        <ele>91</ele>
        <time>2016-12-12T09:44:38Z</time>
      </trkpt>
      <trkpt lat="49.23146" lon="1.86059">
        <ele>91</ele>
        <time>2016-12-12T09:44:41Z</time>
      </trkpt>
      <trkpt lat="49.23148" lon="1.86043">
        <ele>91</ele>
        <time>2016-12-12T09:44:52Z</time>
      </trkpt>
      <trkpt lat="49.2315" lon="1.86028">
        <ele>90</ele>
        <time>2016-12-12T09:45:01Z</time>
      </trkpt>
      <trkpt lat="49.23149" lon="1.86023">
        <ele>91</ele>
        <time>2016-12-12T09:45:04Z</time>
      </trkpt>
      <trkpt lat="49.23151" lon="1.86016">
        <ele>91</ele>
        <time>2016-12-12T09:45:09Z</time>
      </trkpt>
      <trkpt lat="49.2315" lon="1.86005">
        <ele>90</ele>
        <time>2016-12-12T09:45:15Z</time>
      </trkpt>
      <trkpt lat="49.23147" lon="1.85981">
        <ele>89</ele>
        <time>2016-12-12T09:45:34Z</time>
      </trkpt>
      <trkpt lat="49.23146" lon="1.85969">
        <ele>86</ele>
        <time>2016-12-12T09:45:41Z</time>
      </trkpt>
      <trkpt lat="49.23147" lon="1.85961">
        <ele>81</ele>
        <time>2016-12-12T09:45:49Z</time>
      </trkpt>
      <trkpt lat="49.23145" lon="1.85951">
        <ele>81</ele>
        <time>2016-12-12T09:45:55Z</time>
      </trkpt>
      <trkpt lat="49.23144" lon="1.85938">
        <ele>81</ele>
        <time>2016-12-12T09:46:03Z</time>
      </trkpt>
      <trkpt lat="49.23141" lon="1.85928">
        <ele>81</ele>
        <time>2016-12-12T09:46:08Z</time>
      </trkpt>
      <trkpt lat="49.23143" lon="1.85919">
        <ele>79</ele>
        <time>2016-12-12T09:46:14Z</time>
      </trkpt>
      <trkpt lat="49.23146" lon="1.85909">
        <ele>78</ele>
        <time>2016-12-12T09:46:24Z</time>
      </trkpt>
      <trkpt lat="49.23153" lon="1.85911">
        <ele>78</ele>
        <time>2016-12-12T09:46:28Z</time>
      </trkpt>
      <trkpt lat="49.23157" lon="1.85915">
        <ele>83</ele>
        <time>2016-12-12T09:46:34Z</time>
      </trkpt>
      <trkpt lat="49.23183" lon="1.85931">
        <ele>82</ele>
        <time>2016-12-12T09:47:06Z</time>
      </trkpt>
      <trkpt lat="49.2319" lon="1.85931">
        <ele>82</ele>
        <time>2016-12-12T09:47:12Z</time>
      </trkpt>
      <trkpt lat="49.23199" lon="1.85933">
        <ele>80</ele>
        <time>2016-12-12T09:47:21Z</time>
      </trkpt>
      <trkpt lat="49.23208" lon="1.85936">
        <ele>76</ele>
        <time>2016-12-12T09:47:29Z</time>
      </trkpt>
      <trkpt lat="49.2322" lon="1.85957">
        <ele>77</ele>
        <time>2016-12-12T09:47:44Z</time>
      </trkpt>
      <trkpt lat="49.23224" lon="1.85967">
        <ele>82</ele>
        <time>2016-12-12T09:47:49Z</time>
      </trkpt>
      <trkpt lat="49.23231" lon="1.85975">
        <ele>83</ele>
        <time>2016-12-12T09:47:57Z</time>
      </trkpt>
      <trkpt lat="49.23245" lon="1.85977">
        <ele>81</ele>
        <time>2016-12-12T09:48:08Z</time>
      </trkpt>
      <trkpt lat="49.23251" lon="1.85985">
        <ele>88</ele>
        <time>2016-12-12T09:48:16Z</time>
      </trkpt>
      <trkpt lat="49.23263" lon="1.85979">
        <ele>87</ele>
        <time>2016-12-12T09:48:29Z</time>
      </trkpt>
      <trkpt lat="49.23278" lon="1.85942">
        <ele>79</ele>
        <time>2016-12-12T09:48:59Z</time>
      </trkpt>
      <trkpt lat="49.23279" lon="1.85926">
        <ele>76</ele>
        <time>2016-12-12T09:49:11Z</time>
      </trkpt>
      <trkpt lat="49.23283" lon="1.85918">
        <ele>71</ele>
        <time>2016-12-12T09:49:18Z</time>
      </trkpt>
      <trkpt lat="49.23289" lon="1.85913">
        <ele>71</ele>
        <time>2016-12-12T09:49:22Z</time>
      </trkpt>
      <trkpt lat="49.23298" lon="1.85901">
        <ele>78</ele>
        <time>2016-12-12T09:49:32Z</time>
      </trkpt>
      <trkpt lat="49.233" lon="1.85886">
        <ele>83</ele>
        <time>2016-12-12T09:49:40Z</time>
      </trkpt>
      <trkpt lat="49.23302" lon="1.85878">
        <ele>84</ele>
        <time>2016-12-12T09:49:46Z</time>
      </trkpt>
      <trkpt lat="49.23305" lon="1.85869">
        <ele>85</ele>
        <time>2016-12-12T09:49:52Z</time>
      </trkpt>
      <trkpt lat="49.23302" lon="1.85856">
        <ele>87</ele>
        <time>2016-12-12T09:50:00Z</time>
      </trkpt>
      <trkpt lat="49.233" lon="1.85846">
        <ele>85</ele>
        <time>2016-12-12T09:50:05Z</time>
      </trkpt>
      <trkpt lat="49.23294" lon="1.85841">
        <ele>83</ele>
        <time>2016-12-12T09:50:07Z</time>
      </trkpt>
      <trkpt lat="49.23291" lon="1.85832">
        <ele>78</ele>
        <time>2016-12-12T09:50:13Z</time>
      </trkpt>
      <trkpt lat="49.2329" lon="1.85819">
        <ele>79</ele>
        <time>2016-12-12T09:50:24Z</time>
      </trkpt>
      <trkpt lat="49.23294" lon="1.85806">
        <ele>79</ele>
        <time>2016-12-12T09:50:34Z</time>
      </trkpt>
      <trkpt lat="49.23295" lon="1.85796">
        <ele>81</ele>
        <time>2016-12-12T09:50:40Z</time>
      </trkpt>
      <trkpt lat="49.23298" lon="1.85789">
        <ele>84</ele>
        <time>2016-12-12T09:50:44Z</time>
      </trkpt>
      <trkpt lat="49.23296" lon="1.85769">
        <ele>83</ele>
        <time>2016-12-12T09:50:55Z</time>
      </trkpt>
      <trkpt lat="49.23299" lon="1.85761">
        <ele>80</ele>
        <time>2016-12-12T09:51:03Z</time>
      </trkpt>
      <trkpt lat="49.23297" lon="1.85749">
        <ele>77</ele>
        <time>2016-12-12T09:51:12Z</time>
      </trkpt>
      <trkpt lat="49.23321" lon="1.85714">
        <ele>77</ele>
        <time>2016-12-12T09:51:43Z</time>
      </trkpt>
      <trkpt lat="49.23341" lon="1.857">
        <ele>71</ele>
        <time>2016-12-12T09:52:04Z</time>
      </trkpt>
      <trkpt lat="49.23347" lon="1.85699">
        <ele>71</ele>
        <time>2016-12-12T09:52:13Z</time>
      </trkpt>
      <trkpt lat="49.23352" lon="1.85689">
        <ele>72</ele>
        <time>2016-12-12T09:52:20Z</time>
      </trkpt>
      <trkpt lat="49.23359" lon="1.8569">
        <ele>72</ele>
        <time>2016-12-12T09:52:25Z</time>
      </trkpt>
      <trkpt lat="49.23371" lon="1.85681">
        <ele>73</ele>
        <time>2016-12-12T09:52:37Z</time>
      </trkpt>
      <trkpt lat="49.23377" lon="1.85682">
        <ele>74</ele>
        <time>2016-12-12T09:52:49Z</time>
      </trkpt>
      <trkpt lat="49.23382" lon="1.85688">
        <ele>74</ele>
        <time>2016-12-12T09:52:53Z</time>
      </trkpt>
      <trkpt lat="49.2339" lon="1.85687">
        <ele>73</ele>
        <time>2016-12-12T09:53:01Z</time>
      </trkpt>
      <trkpt lat="49.23396" lon="1.85689">
        <ele>70</ele>
        <time>2016-12-12T09:53:06Z</time>
      </trkpt>
      <trkpt lat="49.23402" lon="1.85702">
        <ele>72</ele>
        <time>2016-12-12T09:53:15Z</time>
      </trkpt>
      <trkpt lat="49.23407" lon="1.8571">
        <ele>72</ele>
        <time>2016-12-12T09:53:23Z</time>
      </trkpt>
      <trkpt lat="49.23411" lon="1.85718">
        <ele>77</ele>
        <time>2016-12-12T09:53:34Z</time>
      </trkpt>
      <trkpt lat="49.23416" lon="1.85724">
        <ele>78</ele>
        <time>2016-12-12T09:53:38Z</time>
      </trkpt>
      <trkpt lat="49.23419" lon="1.85733">
        <ele>80</ele>
        <time>2016-12-12T09:53:42Z</time>
      </trkpt>
      <trkpt lat="49.23422" lon="1.85743">
        <ele>79</ele>
        <time>2016-12-12T09:53:49Z</time>
      </trkpt>
      <trkpt lat="49.23434" lon="1.85759">
        <ele>78</ele>
        <time>2016-12-12T09:54:08Z</time>
      </trkpt>
      <trkpt lat="49.23438" lon="1.85771">
        <ele>76</ele>
        <time>2016-12-12T09:54:16Z</time>
      </trkpt>
      <trkpt lat="49.23455" lon="1.85801">
        <ele>74</ele>
        <time>2016-12-12T09:54:39Z</time>
      </trkpt>
      <trkpt lat="49.23459" lon="1.85815">
        <ele>77</ele>
        <time>2016-12-12T09:54:45Z</time>
      </trkpt>
      <trkpt lat="49.23479" lon="1.85826">
        <ele>79</ele>
        <time>2016-12-12T09:55:02Z</time>
      </trkpt>
      <trkpt lat="49.23492" lon="1.85825">
        <ele>80</ele>
        <time>2016-12-12T09:55:13Z</time>
      </trkpt>
      <trkpt lat="49.23494" lon="1.85819">
        <ele>80</ele>
        <time>2016-12-12T09:55:14Z</time>
      </trkpt>
      <trkpt lat="49.23498" lon="1.85829">
        <ele>81</ele>
        <time>2016-12-12T09:55:24Z</time>
      </trkpt>
      <trkpt lat="49.23511" lon="1.85837">
        <ele>80</ele>
        <time>2016-12-12T09:55:41Z</time>
      </trkpt>
      <trkpt lat="49.2352" lon="1.85839">
        <ele>84</ele>
        <time>2016-12-12T09:55:47Z</time>
      </trkpt>
      <trkpt lat="49.23525" lon="1.85833">
        <ele>86</ele>
        <time>2016-12-12T09:55:54Z</time>
      </trkpt>
      <trkpt lat="49.2353" lon="1.85832">
        <ele>87</ele>
        <time>2016-12-12T09:56:00Z</time>
      </trkpt>
      <trkpt lat="49.23538" lon="1.85827">
        <ele>83</ele>
        <time>2016-12-12T09:56:09Z</time>
      </trkpt>
      <trkpt lat="49.2355" lon="1.85815">
        <ele>74</ele>
        <time>2016-12-12T09:56:25Z</time>
      </trkpt>
      <trkpt lat="49.23556" lon="1.85808">
        <ele>72</ele>
        <time>2016-12-12T09:56:32Z</time>
      </trkpt>
      <trkpt lat="49.23564" lon="1.85802">
        <ele>73</ele>
        <time>2016-12-12T09:56:37Z</time>
      </trkpt>
      <trkpt lat="49.23573" lon="1.85784">
        <ele>74</ele>
        <time>2016-12-12T09:57:30Z</time>
      </trkpt>
      <trkpt lat="49.23577" lon="1.85777">
        <ele>79</ele>
        <time>2016-12-12T09:58:12Z</time>
      </trkpt>
      <trkpt lat="49.23573" lon="1.85773">
        <ele>95</ele>
        <time>2016-12-12T09:58:24Z</time>
      </trkpt>
      <trkpt lat="49.23572" lon="1.85766">
        <ele>95</ele>
        <time>2016-12-12T09:59:04Z</time>
      </trkpt>
      <trkpt lat="49.2357" lon="1.85759">
        <ele>95</ele>
        <time>2016-12-12T09:59:08Z</time>
      </trkpt>
      <trkpt lat="49.23564" lon="1.85751">
        <ele>94</ele>
        <time>2016-12-12T09:59:23Z</time>
      </trkpt>
      <trkpt lat="49.23564" lon="1.85757">
        <ele>91</ele>
        <time>2016-12-12T09:59:32Z</time>
      </trkpt>
      <trkpt lat="49.23566" lon="1.85768">
        <ele>85</ele>
        <time>2016-12-12T10:00:02Z</time>
      </trkpt>
      <trkpt lat="49.23567" lon="1.85778">
        <ele>70</ele>
        <time>2016-12-12T10:00:10Z</time>
      </trkpt>
      <trkpt lat="49.23568" lon="1.85787">
        <ele>69</ele>
        <time>2016-12-12T10:00:20Z</time>
      </trkpt>
      <trkpt lat="49.23572" lon="1.85785">
        <ele>71</ele>
        <time>2016-12-12T10:00:35Z</time>
      </trkpt>
      <trkpt lat="49.23573" lon="1.8578">
        <ele>80</ele>
        <time>2016-12-12T10:01:27Z</time>
      </trkpt>
      <trkpt lat="49.23573" lon="1.85774">
        <ele>77</ele>
        <time>2016-12-12T10:02:01Z</time>
      </trkpt>
      <trkpt lat="49.23576" lon="1.85767">
        <ele>78</ele>
        <time>2016-12-12T10:02:10Z</time>
      </trkpt>
      <trkpt lat="49.23586" lon="1.85747">
        <ele>78</ele>
        <time>2016-12-12T10:02:28Z</time>
      </trkpt>
      <trkpt lat="49.23587" lon="1.85723">
        <ele>82</ele>
        <time>2016-12-12T10:02:43Z</time>
      </trkpt>
      <trkpt lat="49.23591" lon="1.8569">
        <ele>88</ele>
        <time>2016-12-12T10:03:05Z</time>
      </trkpt>
      <trkpt lat="49.2359" lon="1.85683">
        <ele>87</ele>
        <time>2016-12-12T10:03:11Z</time>
      </trkpt>
      <trkpt lat="49.23593" lon="1.85654">
        <ele>82</ele>
        <time>2016-12-12T10:03:33Z</time>
      </trkpt>
      <trkpt lat="49.23603" lon="1.85638">
        <ele>80</ele>
        <time>2016-12-12T10:03:46Z</time>
      </trkpt>
      <trkpt lat="49.23605" lon="1.85625">
        <ele>81</ele>
        <time>2016-12-12T10:03:53Z</time>
      </trkpt>
      <trkpt lat="49.23607" lon="1.85621">
        <ele>81</ele>
        <time>2016-12-12T10:03:57Z</time>
      </trkpt>
      <trkpt lat="49.23609" lon="1.85615">
        <ele>80</ele>
        <time>2016-12-12T10:04:02Z</time>
      </trkpt>
      <trkpt lat="49.23608" lon="1.85606">
        <ele>80</ele>
        <time>2016-12-12T10:04:07Z</time>
      </trkpt>
      <trkpt lat="49.23611" lon="1.85603">
        <ele>79</ele>
        <time>2016-12-12T10:04:11Z</time>
      </trkpt>
      <trkpt lat="49.23612" lon="1.85595">
        <ele>78</ele>
        <time>2016-12-12T10:04:17Z</time>
      </trkpt>
      <trkpt lat="49.23624" lon="1.85581">
        <ele>78</ele>
        <time>2016-12-12T10:04:28Z</time>
      </trkpt>
      <trkpt lat="49.23628" lon="1.85565">
        <ele>78</ele>
        <time>2016-12-12T10:04:39Z</time>
      </trkpt>
      <trkpt lat="49.23627" lon="1.8556">
        <ele>81</ele>
        <time>2016-12-12T10:04:43Z</time>
      </trkpt>
      <trkpt lat="49.23627" lon="1.85553">
        <ele>82</ele>
        <time>2016-12-12T10:04:48Z</time>
      </trkpt>
      <trkpt lat="49.23631" lon="1.85547">
        <ele>79</ele>
        <time>2016-12-12T10:04:54Z</time>
      </trkpt>
      <trkpt lat="49.23629" lon="1.85541">
        <ele>78</ele>
        <time>2016-12-12T10:04:58Z</time>
      </trkpt>
      <trkpt lat="49.2363" lon="1.85533">
        <ele>75</ele>
        <time>2016-12-12T10:05:04Z</time>
      </trkpt>
      <trkpt lat="49.23626" lon="1.85524">
        <ele>76</ele>
        <time>2016-12-12T10:05:10Z</time>
      </trkpt>
      <trkpt lat="49.23629" lon="1.85514">
        <ele>72</ele>
        <time>2016-12-12T10:05:17Z</time>
      </trkpt>
      <trkpt lat="49.23627" lon="1.85504">
        <ele>71</ele>
        <time>2016-12-12T10:05:24Z</time>
      </trkpt>
      <trkpt lat="49.23632" lon="1.85497">
        <ele>73</ele>
        <time>2016-12-12T10:05:28Z</time>
      </trkpt>
      <trkpt lat="49.2363" lon="1.85489">
        <ele>74</ele>
        <time>2016-12-12T10:05:33Z</time>
      </trkpt>
      <trkpt lat="49.23631" lon="1.85479">
        <ele>74</ele>
        <time>2016-12-12T10:05:41Z</time>
      </trkpt>
      <trkpt lat="49.23635" lon="1.85473">
        <ele>73</ele>
        <time>2016-12-12T10:05:44Z</time>
      </trkpt>
      <trkpt lat="49.23633" lon="1.85467">
        <ele>74</ele>
        <time>2016-12-12T10:05:48Z</time>
      </trkpt>
      <trkpt lat="49.23635" lon="1.8546">
        <ele>75</ele>
        <time>2016-12-12T10:05:52Z</time>
      </trkpt>
      <trkpt lat="49.23635" lon="1.85451">
        <ele>76</ele>
        <time>2016-12-12T10:05:59Z</time>
      </trkpt>
      <trkpt lat="49.23635" lon="1.85441">
        <ele>80</ele>
        <time>2016-12-12T10:06:06Z</time>
      </trkpt>
      <trkpt lat="49.23639" lon="1.85434">
        <ele>80</ele>
        <time>2016-12-12T10:06:11Z</time>
      </trkpt>
      <trkpt lat="49.23646" lon="1.85429">
        <ele>81</ele>
        <time>2016-12-12T10:06:14Z</time>
      </trkpt>
      <trkpt lat="49.23647" lon="1.85422">
        <ele>82</ele>
        <time>2016-12-12T10:06:18Z</time>
      </trkpt>
      <trkpt lat="49.23645" lon="1.85417">
        <ele>81</ele>
        <time>2016-12-12T10:06:21Z</time>
      </trkpt>
      <trkpt lat="49.2365" lon="1.85413">
        <ele>80</ele>
        <time>2016-12-12T10:06:23Z</time>
      </trkpt>
      <trkpt lat="49.23657" lon="1.85402">
        <ele>81</ele>
        <time>2016-12-12T10:06:32Z</time>
      </trkpt>
      <trkpt lat="49.23663" lon="1.85397">
        <ele>82</ele>
        <time>2016-12-12T10:06:37Z</time>
      </trkpt>
      <trkpt lat="49.23659" lon="1.85389">
        <ele>82</ele>
        <time>2016-12-12T10:06:42Z</time>
      </trkpt>
      <trkpt lat="49.23664" lon="1.85372">
        <ele>81</ele>
        <time>2016-12-12T10:06:52Z</time>
      </trkpt>
      <trkpt lat="49.23664" lon="1.85364">
        <ele>79</ele>
        <time>2016-12-12T10:06:58Z</time>
      </trkpt>
      <trkpt lat="49.23667" lon="1.85359">
        <ele>79</ele>
        <time>2016-12-12T10:07:02Z</time>
      </trkpt>
      <trkpt lat="49.23674" lon="1.8535">
        <ele>81</ele>
        <time>2016-12-12T10:07:13Z</time>
      </trkpt>
      <trkpt lat="49.23676" lon="1.85344">
        <ele>81</ele>
        <time>2016-12-12T10:07:17Z</time>
      </trkpt>
      <trkpt lat="49.23682" lon="1.85342">
        <ele>82</ele>
        <time>2016-12-12T10:07:20Z</time>
      </trkpt>
      <trkpt lat="49.23691" lon="1.85324">
        <ele>82</ele>
        <time>2016-12-12T10:07:32Z</time>
      </trkpt>
      <trkpt lat="49.237" lon="1.85314">
        <ele>83</ele>
        <time>2016-12-12T10:07:40Z</time>
      </trkpt>
      <trkpt lat="49.23702" lon="1.85307">
        <ele>83</ele>
        <time>2016-12-12T10:07:48Z</time>
      </trkpt>
      <trkpt lat="49.23714" lon="1.85294">
        <ele>79</ele>
        <time>2016-12-12T10:08:01Z</time>
      </trkpt>
      <trkpt lat="49.23715" lon="1.85287">
        <ele>78</ele>
        <time>2016-12-12T10:08:04Z</time>
      </trkpt>
      <trkpt lat="49.23715" lon="1.85281">
        <ele>76</ele>
        <time>2016-12-12T10:08:09Z</time>
      </trkpt>
      <trkpt lat="49.23721" lon="1.85274">
        <ele>76</ele>
        <time>2016-12-12T10:08:14Z</time>
      </trkpt>
      <trkpt lat="49.23733" lon="1.85255">
        <ele>72</ele>
        <time>2016-12-12T10:08:30Z</time>
      </trkpt>
      <trkpt lat="49.23747" lon="1.85234">
        <ele>74</ele>
        <time>2016-12-12T10:08:50Z</time>
      </trkpt>
      <trkpt lat="49.23748" lon="1.85225">
        <ele>73</ele>
        <time>2016-12-12T10:08:56Z</time>
      </trkpt>
      <trkpt lat="49.23753" lon="1.85224">
        <ele>73</ele>
        <time>2016-12-12T10:08:57Z</time>
      </trkpt>
      <trkpt lat="49.23762" lon="1.85207">
        <ele>74</ele>
        <time>2016-12-12T10:09:13Z</time>
      </trkpt>
      <trkpt lat="49.2378" lon="1.85184">
        <ele>77</ele>
        <time>2016-12-12T10:09:33Z</time>
      </trkpt>
      <trkpt lat="49.23784" lon="1.85178">
        <ele>78</ele>
        <time>2016-12-12T10:09:40Z</time>
      </trkpt>
      <trkpt lat="49.23784" lon="1.85168">
        <ele>80</ele>
        <time>2016-12-12T10:09:47Z</time>
      </trkpt>
      <trkpt lat="49.23811" lon="1.85147">
        <ele>81</ele>
        <time>2016-12-12T10:10:19Z</time>
      </trkpt>
      <trkpt lat="49.23817" lon="1.85144">
        <ele>82</ele>
        <time>2016-12-12T10:10:26Z</time>
      </trkpt>
      <trkpt lat="49.23823" lon="1.85145">
        <ele>84</ele>
        <time>2016-12-12T10:10:29Z</time>
      </trkpt>
      <trkpt lat="49.23825" lon="1.85142">
        <ele>83</ele>
        <time>2016-12-12T10:10:30Z</time>
      </trkpt>
      <trkpt lat="49.23828" lon="1.85145">
        <ele>84</ele>
        <time>2016-12-12T10:10:33Z</time>
      </trkpt>
      <trkpt lat="49.23833" lon="1.85145">
        <ele>86</ele>
        <time>2016-12-12T10:10:36Z</time>
      </trkpt>
      <trkpt lat="49.23836" lon="1.85149">
        <ele>84</ele>
        <time>2016-12-12T10:10:42Z</time>
      </trkpt>
      <trkpt lat="49.23838" lon="1.85144">
        <ele>84</ele>
        <time>2016-12-12T10:10:44Z</time>
      </trkpt>
      <trkpt lat="49.23843" lon="1.85141">
        <ele>83</ele>
        <time>2016-12-12T10:10:47Z</time>
      </trkpt>
      <trkpt lat="49.23847" lon="1.85134">
        <ele>82</ele>
        <time>2016-12-12T10:10:50Z</time>
      </trkpt>
      <trkpt lat="49.23853" lon="1.85125">
        <ele>79</ele>
        <time>2016-12-12T10:10:56Z</time>
      </trkpt>
      <trkpt lat="49.23852" lon="1.85118">
        <ele>79</ele>
        <time>2016-12-12T10:11:00Z</time>
      </trkpt>
      <trkpt lat="49.23856" lon="1.85113">
        <ele>79</ele>
        <time>2016-12-12T10:11:04Z</time>
      </trkpt>
      <trkpt lat="49.23856" lon="1.85104">
        <ele>78</ele>
        <time>2016-12-12T10:11:10Z</time>
      </trkpt>
      <trkpt lat="49.23865" lon="1.85079">
        <ele>77</ele>
        <time>2016-12-12T10:11:28Z</time>
      </trkpt>
      <trkpt lat="49.23866" lon="1.85071">
        <ele>75</ele>
        <time>2016-12-12T10:11:33Z</time>
      </trkpt>
      <trkpt lat="49.2387" lon="1.85065">
        <ele>75</ele>
        <time>2016-12-12T10:11:37Z</time>
      </trkpt>
      <trkpt lat="49.23872" lon="1.85057">
        <ele>77</ele>
        <time>2016-12-12T10:11:43Z</time>
      </trkpt>
      <trkpt lat="49.23878" lon="1.85053">
        <ele>77</ele>
        <time>2016-12-12T10:11:46Z</time>
      </trkpt>
      <trkpt lat="49.23876" lon="1.85044">
        <ele>78</ele>
        <time>2016-12-12T10:11:52Z</time>
      </trkpt>
      <trkpt lat="49.23887" lon="1.85016">
        <ele>78</ele>
        <time>2016-12-12T10:12:09Z</time>
      </trkpt>
      <trkpt lat="49.23884" lon="1.85007">
        <ele>76</ele>
        <time>2016-12-12T10:12:14Z</time>
      </trkpt>
      <trkpt lat="49.23885" lon="1.85">
        <ele>74</ele>
        <time>2016-12-12T10:12:19Z</time>
      </trkpt>
      <trkpt lat="49.23883" lon="1.84994">
        <ele>75</ele>
        <time>2016-12-12T10:12:22Z</time>
      </trkpt>
      <trkpt lat="49.23884" lon="1.84986">
        <ele>73</ele>
        <time>2016-12-12T10:12:29Z</time>
      </trkpt>
      <trkpt lat="49.23888" lon="1.84979">
        <ele>74</ele>
        <time>2016-12-12T10:12:35Z</time>
      </trkpt>
      <trkpt lat="49.23889" lon="1.84972">
        <ele>71</ele>
        <time>2016-12-12T10:12:40Z</time>
      </trkpt>
      <trkpt lat="49.23896" lon="1.84973">
        <ele>71</ele>
        <time>2016-12-12T10:12:47Z</time>
      </trkpt>
      <trkpt lat="49.23905" lon="1.84983">
        <ele>73</ele>
        <time>2016-12-12T10:12:55Z</time>
      </trkpt>
      <trkpt lat="49.2391" lon="1.84981">
        <ele>73</ele>
        <time>2016-12-12T10:12:58Z</time>
      </trkpt>
      <trkpt lat="49.23914" lon="1.84985">
        <ele>73</ele>
        <time>2016-12-12T10:13:02Z</time>
      </trkpt>
      <trkpt lat="49.2392" lon="1.84985">
        <ele>73</ele>
        <time>2016-12-12T10:13:06Z</time>
      </trkpt>
      <trkpt lat="49.23923" lon="1.84992">
        <ele>75</ele>
        <time>2016-12-12T10:13:10Z</time>
      </trkpt>
      <trkpt lat="49.23929" lon="1.84994">
        <ele>76</ele>
        <time>2016-12-12T10:13:15Z</time>
      </trkpt>
      <trkpt lat="49.23931" lon="1.85002">
        <ele>79</ele>
        <time>2016-12-12T10:13:18Z</time>
      </trkpt>
      <trkpt lat="49.23933" lon="1.8501">
        <ele>80</ele>
        <time>2016-12-12T10:13:21Z</time>
      </trkpt>
      <trkpt lat="49.23935" lon="1.85004">
        <ele>80</ele>
        <time>2016-12-12T10:13:23Z</time>
      </trkpt>
      <trkpt lat="49.2394" lon="1.85002">
        <ele>80</ele>
        <time>2016-12-12T10:13:25Z</time>
      </trkpt>
      <trkpt lat="49.23943" lon="1.85008">
        <ele>81</ele>
        <time>2016-12-12T10:13:29Z</time>
      </trkpt>
      <trkpt lat="49.23946" lon="1.85012">
        <ele>84</ele>
        <time>2016-12-12T10:13:34Z</time>
      </trkpt>
      <trkpt lat="49.23955" lon="1.85012">
        <ele>85</ele>
        <time>2016-12-12T10:13:41Z</time>
      </trkpt>
      <trkpt lat="49.23959" lon="1.85017">
        <ele>84</ele>
        <time>2016-12-12T10:13:45Z</time>
      </trkpt>
      <trkpt lat="49.23974" lon="1.85022">
        <ele>83</ele>
        <time>2016-12-12T10:14:02Z</time>
      </trkpt>
      <trkpt lat="49.23977" lon="1.85014">
        <ele>83</ele>
        <time>2016-12-12T10:14:08Z</time>
      </trkpt>
      <trkpt lat="49.23983" lon="1.84999">
        <ele>82</ele>
        <time>2016-12-12T10:14:14Z</time>
      </trkpt>
      <trkpt lat="49.23989" lon="1.84987">
        <ele>80</ele>
        <time>2016-12-12T10:14:20Z</time>
      </trkpt>
      <trkpt lat="49.23991" lon="1.84979">
        <ele>81</ele>
        <time>2016-12-12T10:14:26Z</time>
      </trkpt>
      <trkpt lat="49.2401" lon="1.84961">
        <ele>81</ele>
        <time>2016-12-12T10:14:41Z</time>
      </trkpt>
      <trkpt lat="49.24018" lon="1.84942">
        <ele>80</ele>
        <time>2016-12-12T10:14:54Z</time>
      </trkpt>
      <trkpt lat="49.24023" lon="1.84935">
        <ele>81</ele>
        <time>2016-12-12T10:15:01Z</time>
      </trkpt>
      <trkpt lat="49.2403" lon="1.84928">
        <ele>83</ele>
        <time>2016-12-12T10:15:09Z</time>
      </trkpt>
      <trkpt lat="49.24031" lon="1.84918">
        <ele>83</ele>
        <time>2016-12-12T10:15:16Z</time>
      </trkpt>
      <trkpt lat="49.2404" lon="1.84899">
        <ele>77</ele>
        <time>2016-12-12T10:15:30Z</time>
      </trkpt>
      <trkpt lat="49.24045" lon="1.84897">
        <ele>76</ele>
        <time>2016-12-12T10:15:34Z</time>
      </trkpt>
      <trkpt lat="49.24053" lon="1.84889">
        <ele>74</ele>
        <time>2016-12-12T10:15:48Z</time>
      </trkpt>
      <trkpt lat="49.24058" lon="1.84882">
        <ele>71</ele>
        <time>2016-12-12T10:15:53Z</time>
      </trkpt>
      <trkpt lat="49.24071" lon="1.84878">
        <ele>74</ele>
        <time>2016-12-12T10:16:04Z</time>
      </trkpt>
      <trkpt lat="49.24079" lon="1.84871">
        <ele>73</ele>
        <time>2016-12-12T10:16:12Z</time>
      </trkpt>
      <trkpt lat="49.24077" lon="1.84868">
        <ele>73</ele>
        <time>2016-12-12T10:16:43Z</time>
      </trkpt>
      <trkpt lat="49.24083" lon="1.84865">
        <ele>76</ele>
        <time>2016-12-12T10:17:13Z</time>
      </trkpt>
      <trkpt lat="49.2409" lon="1.84857">
        <ele>75</ele>
        <time>2016-12-12T10:17:22Z</time>
      </trkpt>
      <trkpt lat="49.24097" lon="1.84845">
        <ele>75</ele>
        <time>2016-12-12T10:17:32Z</time>
      </trkpt>
      <trkpt lat="49.24099" lon="1.84841">
        <ele>74</ele>
        <time>2016-12-12T10:17:36Z</time>
      </trkpt>
      <trkpt lat="49.24114" lon="1.84828">
        <ele>76</ele>
        <time>2016-12-12T10:17:51Z</time>
      </trkpt>
      <trkpt lat="49.24124" lon="1.84818">
        <ele>78</ele>
        <time>2016-12-12T10:18:04Z</time>
      </trkpt>
      <trkpt lat="49.24128" lon="1.8482">
        <ele>78</ele>
        <time>2016-12-12T10:18:08Z</time>
      </trkpt>
      <trkpt lat="49.24134" lon="1.84819">
        <ele>75</ele>
        <time>2016-12-12T10:18:15Z</time>
      </trkpt>
      <trkpt lat="49.24139" lon="1.8481">
        <ele>72</ele>
        <time>2016-12-12T10:18:22Z</time>
      </trkpt>
      <trkpt lat="49.24139" lon="1.84804">
        <ele>72</ele>
        <time>2016-12-12T10:18:25Z</time>
      </trkpt>
      <trkpt lat="49.24143" lon="1.84801">
        <ele>71</ele>
        <time>2016-12-12T10:18:29Z</time>
      </trkpt>
      <trkpt lat="49.24145" lon="1.84796">
        <ele>72</ele>
        <time>2016-12-12T10:18:34Z</time>
      </trkpt>
      <trkpt lat="49.24153" lon="1.8479">
        <ele>76</ele>
        <time>2016-12-12T10:18:43Z</time>
      </trkpt>
      <trkpt lat="49.24157" lon="1.8479">
        <ele>75</ele>
        <time>2016-12-12T10:18:46Z</time>
      </trkpt>
      <trkpt lat="49.2416" lon="1.84793">
        <ele>74</ele>
        <time>2016-12-12T10:18:50Z</time>
      </trkpt>
      <trkpt lat="49.24163" lon="1.84789">
        <ele>74</ele>
        <time>2016-12-12T10:18:53Z</time>
      </trkpt>
      <trkpt lat="49.24166" lon="1.8479">
        <ele>74</ele>
        <time>2016-12-12T10:18:56Z</time>
      </trkpt>
      <trkpt lat="49.24186" lon="1.84781">
        <ele>74</ele>
        <time>2016-12-12T10:19:28Z</time>
      </trkpt>
      <trkpt lat="49.2421" lon="1.84774">
        <ele>76</ele>
        <time>2016-12-12T10:19:49Z</time>
      </trkpt>
      <trkpt lat="49.24227" lon="1.84772">
        <ele>76</ele>
        <time>2016-12-12T10:20:05Z</time>
      </trkpt>
      <trkpt lat="49.24229" lon="1.84767">
        <ele>74</ele>
        <time>2016-12-12T10:20:10Z</time>
      </trkpt>
      <trkpt lat="49.24241" lon="1.84765">
        <ele>76</ele>
        <time>2016-12-12T10:20:18Z</time>
      </trkpt>
      <trkpt lat="49.24245" lon="1.8476">
        <ele>77</ele>
        <time>2016-12-12T10:20:25Z</time>
      </trkpt>
      <trkpt lat="49.24249" lon="1.84761">
        <ele>77</ele>
        <time>2016-12-12T10:20:28Z</time>
      </trkpt>
      <trkpt lat="49.2426" lon="1.8476">
        <ele>77</ele>
        <time>2016-12-12T10:20:36Z</time>
      </trkpt>
      <trkpt lat="49.24264" lon="1.84759">
        <ele>77</ele>
        <time>2016-12-12T10:20:39Z</time>
      </trkpt>
      <trkpt lat="49.24266" lon="1.84755">
        <ele>79</ele>
        <time>2016-12-12T10:20:42Z</time>
      </trkpt>
      <trkpt lat="49.24272" lon="1.84752">
        <ele>82</ele>
        <time>2016-12-12T10:20:51Z</time>
      </trkpt>
      <trkpt lat="49.24277" lon="1.84754">
        <ele>82</ele>
        <time>2016-12-12T10:20:56Z</time>
      </trkpt>
      <trkpt lat="49.24317" lon="1.84751">
        <ele>76</ele>
        <time>2016-12-12T10:21:30Z</time>
      </trkpt>
      <trkpt lat="49.24321" lon="1.8475">
        <ele>74</ele>
        <time>2016-12-12T10:21:34Z</time>
      </trkpt>
      <trkpt lat="49.24328" lon="1.84742">
        <ele>69</ele>
        <time>2016-12-12T10:21:44Z</time>
      </trkpt>
      <trkpt lat="49.24343" lon="1.84735">
        <ele>69</ele>
        <time>2016-12-12T10:22:00Z</time>
      </trkpt>
      <trkpt lat="49.24346" lon="1.84736">
        <ele>71</ele>
        <time>2016-12-12T10:22:04Z</time>
      </trkpt>
      <trkpt lat="49.2435" lon="1.84727">
        <ele>72</ele>
        <time>2016-12-12T10:22:10Z</time>
      </trkpt>
      <trkpt lat="49.2435" lon="1.84721">
        <ele>72</ele>
        <time>2016-12-12T10:22:12Z</time>
      </trkpt>
      <trkpt lat="49.24347" lon="1.84703">
        <ele>72</ele>
        <time>2016-12-12T10:22:20Z</time>
      </trkpt>
      <trkpt lat="49.24349" lon="1.84693">
        <ele>69</ele>
        <time>2016-12-12T10:22:27Z</time>
      </trkpt>
      <trkpt lat="49.24353" lon="1.84689">
        <ele>71</ele>
        <time>2016-12-12T10:22:33Z</time>
      </trkpt>
      <trkpt lat="49.24354" lon="1.84681">
        <ele>74</ele>
        <time>2016-12-12T10:22:36Z</time>
      </trkpt>
      <trkpt lat="49.24348" lon="1.84662">
        <ele>76</ele>
        <time>2016-12-12T10:22:43Z</time>
      </trkpt>
      <trkpt lat="49.24352" lon="1.84652">
        <ele>79</ele>
        <time>2016-12-12T10:22:54Z</time>
      </trkpt>
      <trkpt lat="49.24352" lon="1.84644">
        <ele>84</ele>
        <time>2016-12-12T10:23:16Z</time>
      </trkpt>
      <trkpt lat="49.24349" lon="1.84642">
        <ele>90</ele>
        <time>2016-12-12T10:23:23Z</time>
      </trkpt>
      <trkpt lat="49.24347" lon="1.84639">
        <ele>90</ele>
        <time>2016-12-12T10:23:25Z</time>
      </trkpt>
      <trkpt lat="49.24345" lon="1.84635">
        <ele>93</ele>
        <time>2016-12-12T10:23:30Z</time>
      </trkpt>
      <trkpt lat="49.24345" lon="1.8463">
        <ele>93</ele>
        <time>2016-12-12T10:23:35Z</time>
      </trkpt>
      <trkpt lat="49.24343" lon="1.84626">
        <ele>91</ele>
        <time>2016-12-12T10:23:38Z</time>
      </trkpt>
      <trkpt lat="49.24338" lon="1.84621">
        <ele>89</ele>
        <time>2016-12-12T10:23:48Z</time>
      </trkpt>
      <trkpt lat="49.24328" lon="1.84616">
        <ele>88</ele>
        <time>2016-12-12T10:24:00Z</time>
      </trkpt>
      <trkpt lat="49.2432" lon="1.84615">
        <ele>87</ele>
        <time>2016-12-12T10:24:07Z</time>
      </trkpt>
      <trkpt lat="49.2431" lon="1.84608">
        <ele>88</ele>
        <time>2016-12-12T10:24:16Z</time>
      </trkpt>
      <trkpt lat="49.24306" lon="1.84609">
        <ele>90</ele>
        <time>2016-12-12T10:24:19Z</time>
      </trkpt>
      <trkpt lat="49.24302" lon="1.84612">
        <ele>90</ele>
        <time>2016-12-12T10:24:23Z</time>
      </trkpt>
      <trkpt lat="49.24298" lon="1.84608">
        <ele>90</ele>
        <time>2016-12-12T10:24:29Z</time>
      </trkpt>
      <trkpt lat="49.24292" lon="1.84608">
        <ele>87</ele>
        <time>2016-12-12T10:24:47Z</time>
      </trkpt>
      <trkpt lat="49.24289" lon="1.84611">
        <ele>87</ele>
        <time>2016-12-12T10:24:49Z</time>
      </trkpt>
      <trkpt lat="49.24274" lon="1.84609">
        <ele>87</ele>
        <time>2016-12-12T10:25:00Z</time>
      </trkpt>
      <trkpt lat="49.24269" lon="1.84605">
        <ele>88</ele>
        <time>2016-12-12T10:25:03Z</time>
      </trkpt>
      <trkpt lat="49.24265" lon="1.84603">
        <ele>92</ele>
        <time>2016-12-12T10:25:06Z</time>
      </trkpt>
      <trkpt lat="49.24246" lon="1.84583">
        <ele>93</ele>
        <time>2016-12-12T10:25:29Z</time>
      </trkpt>
      <trkpt lat="49.24242" lon="1.84577">
        <ele>94</ele>
        <time>2016-12-12T10:25:33Z</time>
      </trkpt>
      <trkpt lat="49.24238" lon="1.84573">
        <ele>93</ele>
        <time>2016-12-12T10:25:36Z</time>
      </trkpt>
      <trkpt lat="49.24234" lon="1.84567">
        <ele>93</ele>
        <time>2016-12-12T10:25:41Z</time>
      </trkpt>
      <trkpt lat="49.2423" lon="1.84565">
        <ele>94</ele>
        <time>2016-12-12T10:25:44Z</time>
      </trkpt>
      <trkpt lat="49.24219" lon="1.84555">
        <ele>96</ele>
        <time>2016-12-12T10:25:57Z</time>
      </trkpt>
      <trkpt lat="49.24202" lon="1.84534">
        <ele>98</ele>
        <time>2016-12-12T10:26:17Z</time>
      </trkpt>
      <trkpt lat="49.24199" lon="1.84528">
        <ele>97</ele>
        <time>2016-12-12T10:26:25Z</time>
      </trkpt>
      <trkpt lat="49.24194" lon="1.84525">
        <ele>97</ele>
        <time>2016-12-12T10:26:29Z</time>
      </trkpt>
      <trkpt lat="49.24187" lon="1.84522">
        <ele>100</ele>
        <time>2016-12-12T10:26:33Z</time>
      </trkpt>
      <trkpt lat="49.24178" lon="1.84513">
        <ele>100</ele>
        <time>2016-12-12T10:26:46Z</time>
      </trkpt>
      <trkpt lat="49.24172" lon="1.84509">
        <ele>101</ele>
        <time>2016-12-12T10:26:51Z</time>
      </trkpt>
      <trkpt lat="49.24155" lon="1.84507">
        <ele>104</ele>
        <time>2016-12-12T10:27:06Z</time>
      </trkpt>
      <trkpt lat="49.2415" lon="1.84502">
        <ele>104</ele>
        <time>2016-12-12T10:27:10Z</time>
      </trkpt>
      <trkpt lat="49.24145" lon="1.84499">
        <ele>106</ele>
        <time>2016-12-12T10:27:14Z</time>
      </trkpt>
      <trkpt lat="49.24136" lon="1.84489">
        <ele>106</ele>
        <time>2016-12-12T10:27:21Z</time>
      </trkpt>
      <trkpt lat="49.24131" lon="1.84486">
        <ele>109</ele>
        <time>2016-12-12T10:27:25Z</time>
      </trkpt>
      <trkpt lat="49.24125" lon="1.84475">
        <ele>110</ele>
        <time>2016-12-12T10:27:29Z</time>
      </trkpt>
      <trkpt lat="49.24122" lon="1.84471">
        <ele>114</ele>
        <time>2016-12-12T10:27:31Z</time>
      </trkpt>
      <trkpt lat="49.24117" lon="1.84467">
        <ele>115</ele>
        <time>2016-12-12T10:27:36Z</time>
      </trkpt>
      <trkpt lat="49.24108" lon="1.84466">
        <ele>116</ele>
        <time>2016-12-12T10:27:44Z</time>
      </trkpt>
      <trkpt lat="49.24105" lon="1.84462">
        <ele>116</ele>
        <time>2016-12-12T10:27:49Z</time>
      </trkpt>
      <trkpt lat="49.24101" lon="1.84458">
        <ele>117</ele>
        <time>2016-12-12T10:27:53Z</time>
      </trkpt>
      <trkpt lat="49.24097" lon="1.84461">
        <ele>116</ele>
        <time>2016-12-12T10:27:58Z</time>
      </trkpt>
      <trkpt lat="49.24094" lon="1.84457">
        <ele>117</ele>
        <time>2016-12-12T10:28:00Z</time>
      </trkpt>
      <trkpt lat="49.24091" lon="1.84454">
        <ele>118</ele>
        <time>2016-12-12T10:28:05Z</time>
      </trkpt>
      <trkpt lat="49.24086" lon="1.84435">
        <ele>119</ele>
        <time>2016-12-12T10:28:30Z</time>
      </trkpt>
      <trkpt lat="49.24076" lon="1.84423">
        <ele>121</ele>
        <time>2016-12-12T10:28:37Z</time>
      </trkpt>
      <trkpt lat="49.24075" lon="1.84415">
        <ele>121</ele>
        <time>2016-12-12T10:28:43Z</time>
      </trkpt>
      <trkpt lat="49.24079" lon="1.84402">
        <ele>116</ele>
        <time>2016-12-12T10:28:51Z</time>
      </trkpt>
      <trkpt lat="49.24069" lon="1.84385">
        <ele>105</ele>
        <time>2016-12-12T10:29:07Z</time>
      </trkpt>
      <trkpt lat="49.24066" lon="1.84374">
        <ele>103</ele>
        <time>2016-12-12T10:29:15Z</time>
      </trkpt>
      <trkpt lat="49.24063" lon="1.84362">
        <ele>102</ele>
        <time>2016-12-12T10:29:34Z</time>
      </trkpt>
      <trkpt lat="49.24059" lon="1.8435">
        <ele>107</ele>
        <time>2016-12-12T10:29:42Z</time>
      </trkpt>
      <trkpt lat="49.24058" lon="1.8434">
        <ele>110</ele>
        <time>2016-12-12T10:29:46Z</time>
      </trkpt>
      <trkpt lat="49.24049" lon="1.84316">
        <ele>116</ele>
        <time>2016-12-12T10:29:59Z</time>
      </trkpt>
      <trkpt lat="49.2404" lon="1.8429">
        <ele>125</ele>
        <time>2016-12-12T10:30:15Z</time>
      </trkpt>
      <trkpt lat="49.24036" lon="1.84285">
        <ele>129</ele>
        <time>2016-12-12T10:30:18Z</time>
      </trkpt>
      <trkpt lat="49.24038" lon="1.84278">
        <ele>129</ele>
        <time>2016-12-12T10:30:23Z</time>
      </trkpt>
      <trkpt lat="49.24032" lon="1.84264">
        <ele>130</ele>
        <time>2016-12-12T10:30:30Z</time>
      </trkpt>
      <trkpt lat="49.24029" lon="1.8426">
        <ele>131</ele>
        <time>2016-12-12T10:30:33Z</time>
      </trkpt>
      <trkpt lat="49.24028" lon="1.84253">
        <ele>132</ele>
        <time>2016-12-12T10:30:38Z</time>
      </trkpt>
      <trkpt lat="49.24025" lon="1.84248">
        <ele>133</ele>
        <time>2016-12-12T10:30:43Z</time>
      </trkpt>
      <trkpt lat="49.24024" lon="1.84238">
        <ele>134</ele>
        <time>2016-12-12T10:30:53Z</time>
      </trkpt>
      <trkpt lat="49.24031" lon="1.84241">
        <ele>134</ele>
        <time>2016-12-12T10:31:05Z</time>
      </trkpt>
      <trkpt lat="49.24034" lon="1.84233">
        <ele>130</ele>
        <time>2016-12-12T10:31:08Z</time>
      </trkpt>
      <trkpt lat="49.24036" lon="1.84225">
        <ele>127</ele>
        <time>2016-12-12T10:31:12Z</time>
      </trkpt>
      <trkpt lat="49.24045" lon="1.84208">
        <ele>118</ele>
        <time>2016-12-12T10:31:29Z</time>
      </trkpt>
      <trkpt lat="49.24054" lon="1.84203">
        <ele>117</ele>
        <time>2016-12-12T10:31:37Z</time>
      </trkpt>
      <trkpt lat="49.24067" lon="1.84195">
        <ele>113</ele>
        <time>2016-12-12T10:31:46Z</time>
      </trkpt>
      <trkpt lat="49.24087" lon="1.84181">
        <ele>116</ele>
        <time>2016-12-12T10:32:08Z</time>
      </trkpt>
      <trkpt lat="49.2409" lon="1.84173">
        <ele>117</ele>
        <time>2016-12-12T10:32:19Z</time>
      </trkpt>
      <trkpt lat="49.24106" lon="1.84137">
        <ele>115</ele>
        <time>2016-12-12T10:32:38Z</time>
      </trkpt>
      <trkpt lat="49.2411" lon="1.84126">
        <ele>114</ele>
        <time>2016-12-12T10:32:47Z</time>
      </trkpt>
      <trkpt lat="49.24116" lon="1.84107">
        <ele>114</ele>
        <time>2016-12-12T10:33:00Z</time>
      </trkpt>
      <trkpt lat="49.24122" lon="1.84103">
        <ele>115</ele>
        <time>2016-12-12T10:33:04Z</time>
      </trkpt>
      <trkpt lat="49.24138" lon="1.8407">
        <ele>119</ele>
        <time>2016-12-12T10:33:24Z</time>
      </trkpt>
      <trkpt lat="49.24138" lon="1.84059">
        <ele>120</ele>
        <time>2016-12-12T10:33:32Z</time>
      </trkpt>
      <trkpt lat="49.24157" lon="1.84012">
        <ele>120</ele>
        <time>2016-12-12T10:34:06Z</time>
      </trkpt>
      <trkpt lat="49.24174" lon="1.83991">
        <ele>123</ele>
        <time>2016-12-12T10:34:23Z</time>
      </trkpt>
      <trkpt lat="49.24199" lon="1.83974">
        <ele>124</ele>
        <time>2016-12-12T10:34:56Z</time>
      </trkpt>
      <trkpt lat="49.24217" lon="1.83943">
        <ele>124</ele>
        <time>2016-12-12T10:35:19Z</time>
      </trkpt>
      <trkpt lat="49.2422" lon="1.83934">
        <ele>123</ele>
        <time>2016-12-12T10:35:24Z</time>
      </trkpt>
      <trkpt lat="49.24231" lon="1.83916">
        <ele>114</ele>
        <time>2016-12-12T10:35:39Z</time>
      </trkpt>
      <trkpt lat="49.24236" lon="1.83906">
        <ele>113</ele>
        <time>2016-12-12T10:35:47Z</time>
      </trkpt>
      <trkpt lat="49.24238" lon="1.83893">
        <ele>114</ele>
        <time>2016-12-12T10:35:57Z</time>
      </trkpt>
      <trkpt lat="49.24261" lon="1.83863">
        <ele>112</ele>
        <time>2016-12-12T10:36:20Z</time>
      </trkpt>
      <trkpt lat="49.24267" lon="1.83853">
        <ele>111</ele>
        <time>2016-12-12T10:36:30Z</time>
      </trkpt>
      <trkpt lat="49.24269" lon="1.8384">
        <ele>109</ele>
        <time>2016-12-12T10:36:39Z</time>
      </trkpt>
      <trkpt lat="49.24289" lon="1.83788">
        <ele>109</ele>
        <time>2016-12-12T10:37:10Z</time>
      </trkpt>
      <trkpt lat="49.24289" lon="1.83779">
        <ele>108</ele>
        <time>2016-12-12T10:37:15Z</time>
      </trkpt>
      <trkpt lat="49.24293" lon="1.83773">
        <ele>108</ele>
        <time>2016-12-12T10:37:18Z</time>
      </trkpt>
      <trkpt lat="49.24289" lon="1.83763">
        <ele>107</ele>
        <time>2016-12-12T10:37:23Z</time>
      </trkpt>
      <trkpt lat="49.24291" lon="1.83752">
        <ele>107</ele>
        <time>2016-12-12T10:37:30Z</time>
      </trkpt>
      <trkpt lat="49.24295" lon="1.83744">
        <ele>106</ele>
        <time>2016-12-12T10:37:35Z</time>
      </trkpt>
      <trkpt lat="49.24305" lon="1.83717">
        <ele>103</ele>
        <time>2016-12-12T10:37:53Z</time>
      </trkpt>
      <trkpt lat="49.24303" lon="1.83707">
        <ele>101</ele>
        <time>2016-12-12T10:38:01Z</time>
      </trkpt>
      <trkpt lat="49.24313" lon="1.83698">
        <ele>103</ele>
        <time>2016-12-12T10:38:09Z</time>
      </trkpt>
      <trkpt lat="49.24309" lon="1.8369">
        <ele>103</ele>
        <time>2016-12-12T10:38:14Z</time>
      </trkpt>
      <trkpt lat="49.24312" lon="1.83678">
        <ele>105</ele>
        <time>2016-12-12T10:38:21Z</time>
      </trkpt>
      <trkpt lat="49.2431" lon="1.83667">
        <ele>104</ele>
        <time>2016-12-12T10:38:27Z</time>
      </trkpt>
      <trkpt lat="49.24314" lon="1.8365">
        <ele>103</ele>
        <time>2016-12-12T10:38:35Z</time>
      </trkpt>
      <trkpt lat="49.24312" lon="1.83641">
        <ele>103</ele>
        <time>2016-12-12T10:38:40Z</time>
      </trkpt>
      <trkpt lat="49.24314" lon="1.83623">
        <ele>103</ele>
        <time>2016-12-12T10:38:51Z</time>
      </trkpt>
      <trkpt lat="49.24319" lon="1.83611">
        <ele>103</ele>
        <time>2016-12-12T10:39:03Z</time>
      </trkpt>
      <trkpt lat="49.24325" lon="1.83606">
        <ele>106</ele>
        <time>2016-12-12T10:39:07Z</time>
      </trkpt>
      <trkpt lat="49.24326" lon="1.83597">
        <ele>107</ele>
        <time>2016-12-12T10:39:12Z</time>
      </trkpt>
      <trkpt lat="49.24331" lon="1.83592">
        <ele>111</ele>
        <time>2016-12-12T10:39:35Z</time>
      </trkpt>
      <trkpt lat="49.24336" lon="1.8358">
        <ele>107</ele>
        <time>2016-12-12T10:39:42Z</time>
      </trkpt>
      <trkpt lat="49.24338" lon="1.83578">
        <ele>108</ele>
        <time>2016-12-12T10:39:44Z</time>
      </trkpt>
      <trkpt lat="49.24339" lon="1.83573">
        <ele>107</ele>
        <time>2016-12-12T10:39:49Z</time>
      </trkpt>
      <trkpt lat="49.24337" lon="1.83569">
        <ele>105</ele>
        <time>2016-12-12T10:39:53Z</time>
      </trkpt>
      <trkpt lat="49.24339" lon="1.83564">
        <ele>102</ele>
        <time>2016-12-12T10:40:00Z</time>
      </trkpt>
      <trkpt lat="49.24344" lon="1.8356">
        <ele>103</ele>
        <time>2016-12-12T10:40:03Z</time>
      </trkpt>
      <trkpt lat="49.24348" lon="1.83546">
        <ele>103</ele>
        <time>2016-12-12T10:40:15Z</time>
      </trkpt>
      <trkpt lat="49.2435" lon="1.83531">
        <ele>105</ele>
        <time>2016-12-12T10:40:25Z</time>
      </trkpt>
      <trkpt lat="49.24348" lon="1.83524">
        <ele>105</ele>
        <time>2016-12-12T10:40:29Z</time>
      </trkpt>
      <trkpt lat="49.24348" lon="1.83516">
        <ele>105</ele>
        <time>2016-12-12T10:40:34Z</time>
      </trkpt>
      <trkpt lat="49.24351" lon="1.83512">
        <ele>104</ele>
        <time>2016-12-12T10:40:38Z</time>
      </trkpt>
      <trkpt lat="49.24354" lon="1.83511">
        <ele>106</ele>
        <time>2016-12-12T10:40:41Z</time>
      </trkpt>
      <trkpt lat="49.24349" lon="1.83488">
        <ele>100</ele>
        <time>2016-12-12T10:40:56Z</time>
      </trkpt>
      <trkpt lat="49.24356" lon="1.83482">
        <ele>99</ele>
        <time>2016-12-12T10:41:01Z</time>
      </trkpt>
      <trkpt lat="49.24358" lon="1.83476">
        <ele>100</ele>
        <time>2016-12-12T10:41:03Z</time>
      </trkpt>
      <trkpt lat="49.24358" lon="1.83471">
        <ele>102</ele>
        <time>2016-12-12T10:41:06Z</time>
      </trkpt>
      <trkpt lat="49.24362" lon="1.83463">
        <ele>107</ele>
        <time>2016-12-12T10:41:11Z</time>
      </trkpt>
      <trkpt lat="49.24362" lon="1.83458">
        <ele>107</ele>
        <time>2016-12-12T10:41:15Z</time>
      </trkpt>
      <trkpt lat="49.24364" lon="1.83453">
        <ele>107</ele>
        <time>2016-12-12T10:41:20Z</time>
      </trkpt>
      <trkpt lat="49.24363" lon="1.83447">
        <ele>107</ele>
        <time>2016-12-12T10:41:37Z</time>
      </trkpt>
      <trkpt lat="49.24366" lon="1.83442">
        <ele>106</ele>
        <time>2016-12-12T10:41:41Z</time>
      </trkpt>
      <trkpt lat="49.24365" lon="1.83437">
        <ele>105</ele>
        <time>2016-12-12T10:41:44Z</time>
      </trkpt>
      <trkpt lat="49.24366" lon="1.83433">
        <ele>105</ele>
        <time>2016-12-12T10:41:47Z</time>
      </trkpt>
      <trkpt lat="49.24365" lon="1.83428">
        <ele>105</ele>
        <time>2016-12-12T10:41:50Z</time>
      </trkpt>
      <trkpt lat="49.24367" lon="1.83423">
        <ele>105</ele>
        <time>2016-12-12T10:41:52Z</time>
      </trkpt>
      <trkpt lat="49.24366" lon="1.83414">
        <ele>106</ele>
        <time>2016-12-12T10:41:57Z</time>
      </trkpt>
      <trkpt lat="49.24367" lon="1.83399">
        <ele>108</ele>
        <time>2016-12-12T10:42:06Z</time>
      </trkpt>
      <trkpt lat="49.24363" lon="1.83394">
        <ele>104</ele>
        <time>2016-12-12T10:42:17Z</time>
      </trkpt>
      <trkpt lat="49.24366" lon="1.83392">
        <ele>103</ele>
        <time>2016-12-12T10:42:19Z</time>
      </trkpt>
      <trkpt lat="49.24368" lon="1.83388">
        <ele>102</ele>
        <time>2016-12-12T10:42:23Z</time>
      </trkpt>
      <trkpt lat="49.24368" lon="1.83383">
        <ele>103</ele>
        <time>2016-12-12T10:42:29Z</time>
      </trkpt>
      <trkpt lat="49.24366" lon="1.8338">
        <ele>102</ele>
        <time>2016-12-12T10:42:35Z</time>
      </trkpt>
      <trkpt lat="49.24366" lon="1.8338">
        <ele>104</ele>
        <time>2016-12-12T10:42:59Z</time>
      </trkpt>
      <trkpt lat="49.24369" lon="1.83375">
        <ele>105</ele>
        <time>2016-12-12T10:44:05Z</time>
      </trkpt>
    </trkseg>
  </trk>
</gpx>